M I D A S
Marine Information and Data Acquisition System
Tripno 1782 of the Zeeleeuw from 2009-09-22 06:49:20 to 2009-09-22 14:29:12
Back to CruiseResearch ActivitiesStationsMapUnderway DataData graphs

EquipmentUnitsComment
TimeDGPSUTC
LatitudeDGPSDM.mWGS84
LongitudeDGPSDM.mWGS84
TemperatureSBE03/SBE38deg celciusITS90
ConductivitySBE21S/mITS90
SalinitySBE21 Practical Salinity Units
ChlorophylAChelsea fluorimeterg/lCalibrated in Aceton
Missing or incorrect values are displayed as -999
Sea surface data collected by the RV Zeeleeuw from 2009-09-22 06:50:13 to 2009-09-22 14:35:28
                                                                                    Next 1000 lines
Time Latitude Longitude Temperature Conductivity Salinity ChlorophylA
2009-09-22 06:50:24 51°13.662 2°55.96 20.7087 0.026051 0.144212 10.143129
2009-09-22 06:50:28 51°13.662 2°55.96 20.7067 0.026051 0.144212 10.143129
2009-09-22 06:50:33 51°13.662 2°55.96 20.7059 0.026051 0.144215 10.143129
2009-09-22 06:50:39 51°13.662 2°55.96 20.7052 0.026051 0.144215 10.143129
2009-09-22 06:50:43 51°13.662 2°55.96 20.7047 0.026051 0.144215 10.143129
2009-09-22 06:50:48 51°13.662 2°55.96 20.7092 0.026051 0.144215 10.108305
2009-09-22 06:50:53 51°13.662 2°55.96 20.7086 0.026051 0.144215 10.108305
2009-09-22 06:50:58 51°13.662 2°55.96 20.7114 0.026051 0.144217 10.143129
2009-09-22 06:51:04 51°13.662 2°55.96 20.7077 0.026051 0.14422 10.143129
2009-09-22 06:51:09 51°13.662 2°55.96 20.7103 0.026051 0.144222 10.143129
2009-09-22 06:51:13 51°13.662 2°55.96 20.7108 0.026051 0.144222 10.143129
2009-09-22 06:51:19 51°13.662 2°55.96 20.718 0.026051 0.144222 10.143129
2009-09-22 06:51:23 51°13.662 2°55.96 20.721 0.026051 0.144222 10.143129
2009-09-22 06:51:28 51°13.661 2°55.96 20.7177 0.026051 0.144222 10.143129
2009-09-22 06:51:33 51°13.661 2°55.96 20.72 0.026051 0.144222 10.143129
2009-09-22 06:51:39 51°13.661 2°55.96 20.7118 0.026051 0.144222 10.108305
2009-09-22 06:51:43 51°13.661 2°55.96 20.7152 0.026051 0.144225 10.143129
2009-09-22 06:51:49 51°13.661 2°55.96 20.7154 0.026051 0.144227 10.108305
2009-09-22 06:51:53 51°13.661 2°55.96 20.7147 0.026051 0.144227 10.108305
2009-09-22 06:51:59 51°13.661 2°55.96 20.7179 0.026051 0.144227 10.108305
2009-09-22 06:52:03 51°13.662 2°55.96 20.7086 0.026051 0.144225 10.143129
2009-09-22 06:52:09 51°13.662 2°55.96 20.7109 0.026051 0.144227 10.143129
2009-09-22 06:52:13 51°13.662 2°55.96 20.7145 0.026051 0.14423 10.143129
2009-09-22 06:52:19 51°13.662 2°55.96 20.7151 0.026051 0.144237 10.108305
2009-09-22 06:52:23 51°13.662 2°55.96 20.715 0.026051 0.144237 10.108305
2009-09-22 06:52:28 51°13.662 2°55.96 20.7179 0.026051 0.144245 10.108305
2009-09-22 06:52:33 51°13.662 2°55.96 20.7237 0.026051 0.144247 10.143129
2009-09-22 06:52:38 51°13.662 2°55.96 20.716 0.026051 0.14425 10.143129
2009-09-22 06:52:43 51°13.662 2°55.96 20.7183 0.026051 0.144252 10.108305
2009-09-22 06:52:48 51°13.662 2°55.96 20.7149 0.026051 0.144252 10.108305
2009-09-22 06:52:53 51°13.662 2°55.96 20.7131 0.026051 0.144257 10.108305
2009-09-22 06:52:58 51°13.662 2°55.96 20.7161 0.026051 0.144257 10.108305
2009-09-22 06:53:04 51°13.662 2°55.96 20.7157 0.026051 0.144257 10.143129
2009-09-22 06:53:08 51°13.662 2°55.96 20.7206 0.026051 0.144254 10.108305
2009-09-22 06:53:13 51°13.662 2°55.96 20.7331 0.026051 0.144254 10.143129
2009-09-22 06:53:19 51°13.662 2°55.96 20.7209 0.026051 0.144257 10.108305
2009-09-22 06:53:23 51°13.662 2°55.96 20.7128 0.026051 0.144257 10.108305
2009-09-22 06:53:28 51°13.662 2°55.96 20.7129 0.026051 0.144259 10.108305
2009-09-22 06:53:33 51°13.662 2°55.96 20.7142 0.026051 0.144262 10.108305
2009-09-22 06:53:38 51°13.662 2°55.959 20.7166 0.026051 0.144264 10.108305
2009-09-22 06:53:44 51°13.662 2°55.959 20.7179 0.026051 0.144267 10.108305
2009-09-22 06:53:49 51°13.663 2°55.959 20.7171 0.026051 0.144269 10.108305
2009-09-22 06:53:54 51°13.663 2°55.959 20.7153 0.026051 0.144269 10.108305
2009-09-22 06:53:59 51°13.663 2°55.959 20.7141 0.026051 0.144274 10.108305
2009-09-22 06:54:04 51°13.663 2°55.959 20.712 0.026051 0.144277 10.108305
2009-09-22 06:54:09 51°13.663 2°55.959 20.7142 0.026051 0.144279 10.108305
2009-09-22 06:54:13 51°13.663 2°55.959 20.7132 0.026051 0.144282 10.143129
2009-09-22 06:54:19 51°13.663 2°55.959 20.714 0.026051 0.144284 10.108305
2009-09-22 06:54:23 51°13.662 2°55.96 20.7178 0.026051 0.144284 10.108305
2009-09-22 06:54:28 51°13.662 2°55.96 20.7207 0.026051 0.144287 10.108305
2009-09-22 06:54:33 51°13.662 2°55.96 20.7194 0.026051 0.144284 10.108305
2009-09-22 06:54:38 51°13.663 2°55.96 20.7243 0.026051 0.144287 10.108305
2009-09-22 06:54:43 51°13.663 2°55.96 20.7258 0.026051 0.144287 10.108305
2009-09-22 06:54:48 51°13.663 2°55.96 20.7286 0.026051 0.144289 10.108305
2009-09-22 06:54:53 51°13.662 2°55.96 20.7337 0.026051 0.144287 10.108305
2009-09-22 06:54:58 51°13.662 2°55.96 20.7465 0.026051 0.144287 10.108305
2009-09-22 06:55:03 51°13.662 2°55.96 20.7539 0.026051 0.144289 10.108305
2009-09-22 06:55:09 51°13.662 2°55.96 20.7515 0.026051 0.144297 10.108305
2009-09-22 06:55:13 51°13.661 2°55.96 20.7405 0.026051 0.144297 10.108305
2009-09-22 06:55:19 51°13.661 2°55.96 20.7327 0.026051 0.144299 10.108305
2009-09-22 06:55:23 51°13.661 2°55.96 20.7243 0.026051 0.144299 10.108305
2009-09-22 06:55:28 51°13.66 2°55.96 20.6687 0.026051 0.144301 10.108305
2009-09-22 06:55:33 51°13.66 2°55.96 20.6624 0.026051 0.144311 10.108305
2009-09-22 06:55:39 51°13.661 2°55.959 20.667 0.026051 0.144319 10.108305
2009-09-22 06:55:43 51°13.661 2°55.958 20.6595 0.026051 0.144321 10.108305
2009-09-22 06:55:48 51°13.662 2°55.956 20.6077 0.026051 0.144319 10.108305
2009-09-22 06:55:53 51°13.662 2°55.954 20.6837 0.026051 0.144319 10.108305
2009-09-22 06:55:58 51°13.663 2°55.951 20.6996 0.026051 0.144344 10.108305
2009-09-22 06:56:03 51°13.664 2°55.947 20.6769 0.026051 0.144336 10.108305
2009-09-22 06:56:09 51°13.666 2°55.943 20.6765 0.026051 0.144349 10.108305
2009-09-22 06:56:14 51°13.667 2°55.938 20.6805 0.026051 0.144366 10.108305
2009-09-22 06:56:20 51°13.669 2°55.931 20.6998 0.026051 0.144378 10.108305
2009-09-22 06:56:25 51°13.671 2°55.925 20.6815 0.026051 0.144378 10.108305
2009-09-22 06:56:32 51°13.674 2°55.916 20.7089 0.026051 0.144383 10.108305
2009-09-22 06:56:37 51°13.676 2°55.908 20.6977 0.026051 0.144386 10.108305
2009-09-22 06:56:42 51°13.678 2°55.901 20.7149 0.026051 0.144391 10.108305
2009-09-22 06:56:47 51°13.68 2°55.893 20.7251 0.026051 0.144393 10.108305
2009-09-22 06:56:52 51°13.683 2°55.885 20.7249 0.026051 0.144396 10.108305
2009-09-22 06:56:57 51°13.685 2°55.877 20.7202 0.026051 0.144396 10.108305
2009-09-22 06:57:02 51°13.686 2°55.869 20.7156 0.026051 0.144396 10.108305
2009-09-22 06:57:07 51°13.688 2°55.861 20.7235 0.026051 0.144396 10.108305
2009-09-22 06:57:12 51°13.69 2°55.853 20.7365 0.026051 0.144396 10.108305
2009-09-22 06:57:17 51°13.691 2°55.845 20.7342 0.026051 0.144396 10.108305
2009-09-22 06:57:22 51°13.692 2°55.836 20.7274 0.026051 0.144396 10.108305
2009-09-22 06:57:27 51°13.693 2°55.829 20.7251 0.026051 0.144396 10.108305
2009-09-22 06:57:32 51°13.693 2°55.821 20.7204 0.026051 0.144396 10.108305
2009-09-22 06:57:37 51°13.694 2°55.812 20.7156 0.026051 0.144396 10.108305
2009-09-22 06:57:42 51°13.694 2°55.805 20.7191 0.026051 0.144398 10.108305
2009-09-22 06:57:47 51°13.695 2°55.797 20.7232 0.026051 0.144396 10.108305
2009-09-22 06:57:52 51°13.695 2°55.789 20.7242 0.026051 0.144393 10.108305
2009-09-22 06:57:57 51°13.695 2°55.782 20.726 0.026051 0.144393 10.108305
2009-09-22 06:58:02 51°13.694 2°55.775 20.7263 0.026051 0.144391 10.108305
2009-09-22 06:58:07 51°13.694 2°55.768 20.7269 0.026051 0.144386 10.108305
2009-09-22 06:58:12 51°13.693 2°55.762 20.7302 0.026051 0.144381 10.108305
2009-09-22 06:58:17 51°13.693 2°55.756 20.7346 0.026051 0.144381 10.108305
2009-09-22 06:58:22 51°13.692 2°55.75 20.7399 0.026051 0.144381 10.108305
2009-09-22 06:58:27 51°13.691 2°55.745 20.7388 0.026051 0.144376 10.108305
2009-09-22 06:58:32 51°13.691 2°55.74 20.7521 0.026051 0.144376 10.108305
2009-09-22 06:58:37 51°13.69 2°55.737 20.7535 0.026051 0.144371 10.108305
2009-09-22 06:58:41 51°13.69 2°55.735 20.7475 0.026051 0.144361 10.108305
2009-09-22 06:58:46 51°13.69 2°55.733 20.7538 0.026051 0.144351 10.108305
2009-09-22 06:58:52 51°13.69 2°55.732 20.7778 0.026051 0.144353 10.108305
2009-09-22 06:58:56 51°13.691 2°55.731 20.7746 0.026051 0.144353 10.108305
2009-09-22 06:59:01 51°13.692 2°55.731 20.7794 0.026051 0.144358 10.108305
2009-09-22 06:59:07 51°13.694 2°55.732 20.7799 0.026051 0.144368 10.108305
2009-09-22 06:59:12 51°13.695 2°55.733 20.7784 0.026051 0.144376 10.108305
2009-09-22 06:59:17 51°13.697 2°55.733 20.7745 0.026051 0.144381 10.108305
2009-09-22 06:59:22 51°13.699 2°55.734 20.7743 0.026051 0.144383 10.108305
2009-09-22 06:59:26 51°13.701 2°55.734 20.7734 0.026051 0.144383 10.108305
2009-09-22 06:59:31 51°13.704 2°55.734 20.7793 0.026051 0.144388 10.108305
2009-09-22 06:59:37 51°13.707 2°55.734 20.7825 0.026051 0.144391 10.073481
2009-09-22 06:59:41 51°13.71 2°55.733 20.7949 0.026051 0.144393 10.108305
2009-09-22 06:59:46 51°13.713 2°55.732 20.7945 0.026051 0.144401 10.108305
2009-09-22 06:59:51 51°13.717 2°55.73 20.7984 0.026051 0.144406 10.108305
2009-09-22 06:59:56 51°13.721 2°55.727 20.7833 0.026051 0.144406 10.108305
2009-09-22 07:00:01 51°13.726 2°55.724 20.7779 0.026051 0.14441 10.108305
2009-09-22 07:00:06 51°13.731 2°55.719 20.7091 0.026051 0.144413 10.108305
2009-09-22 07:00:11 51°13.737 2°55.714 20.7065 0.026051 0.144418 10.073481
2009-09-22 07:00:15 51°13.742 2°55.71 20.6648 0.026051 0.144425 10.108305
2009-09-22 07:00:21 51°13.75 2°55.703 20.6416 0.026051 0.144425 10.108305
2009-09-22 07:00:26 51°13.758 2°55.697 20.672 0.026051 0.144425 10.108305
2009-09-22 07:00:30 51°13.764 2°55.691 20.6755 0.026051 0.144423 10.108305
2009-09-22 07:00:35 51°13.773 2°55.684 20.6661 0.026051 0.144423 10.108305
2009-09-22 07:00:40 51°13.781 2°55.677 20.6515 0.026051 0.144423 10.108305
2009-09-22 07:00:45 51°13.79 2°55.669 20.6516 0.026051 0.144423 10.108305
2009-09-22 07:00:50 51°13.8 2°55.661 20.6613 0.026051 0.144423 10.108305
2009-09-22 07:00:55 51°13.809 2°55.653 20.6581 0.026051 0.144423 10.108305
2009-09-22 07:01:00 51°13.82 2°55.644 20.659 0.026051 0.144425 10.073481
2009-09-22 07:01:05 51°13.83 2°55.636 20.6627 0.026051 0.144428 10.108305
2009-09-22 07:01:10 51°13.84 2°55.627 20.6462 0.026051 0.144435 10.108305
2009-09-22 07:01:14 51°13.849 2°55.62 20.649 0.026051 0.14444 10.073481
2009-09-22 07:01:20 51°13.862 2°55.61 20.677 0.026051 0.14444 10.073481
2009-09-22 07:01:24 51°13.871 2°55.603 20.6744 0.026051 0.14444 10.073481
2009-09-22 07:01:30 51°13.884 2°55.593 20.6703 0.026051 0.144445 10.108305
2009-09-22 07:01:34 51°13.893 2°55.586 20.6398 0.026051 0.144458 10.108305
2009-09-22 07:01:39 51°13.904 2°55.577 20.6703 0.026051 0.144455 10.073481
2009-09-22 07:01:44 51°13.915 2°55.569 20.7104 0.026051 0.144445 10.073481
2009-09-22 07:01:49 51°13.926 2°55.56 20.6803 0.026051 0.144468 10.108305
2009-09-22 07:01:54 51°13.937 2°55.551 20.6839 0.025949 0.143913 10.108305
2009-09-22 07:01:59 51°13.949 2°55.542 20.6908 0.025949 0.143913 10.108305
2009-09-22 07:02:04 51°13.96 2°55.533 20.6676 0.025949 0.143901 10.073481
2009-09-22 07:02:09 51°13.972 2°55.524 20.6651 0.025949 0.143923 10.108305
2009-09-22 07:02:13 51°13.981 2°55.516 20.684 0.025949 0.143936 10.073481
2009-09-22 07:02:19 51°13.995 2°55.506 20.6859 0.025949 0.143921 10.073481
2009-09-22 07:02:24 51°14.007 2°55.497 20.6895 0.025949 0.143921 10.073481
2009-09-22 07:02:29 51°14.018 2°55.488 20.6815 0.025949 0.143936 10.108305
2009-09-22 07:02:34 51°14.03 2°55.479 20.6835 0.025949 0.14395 10.073481
2009-09-22 07:02:39 51°14.042 2°55.47 20.6954 0.025949 0.143953 10.108305
2009-09-22 07:02:43 51°14.052 2°55.463 20.724 0.025949 0.143933 10.108305
2009-09-22 07:02:49 51°14.066 2°55.452 20.7249 0.025949 0.143943 10.108305
2009-09-22 07:02:54 51°14.078 2°55.443 20.6655 0.025949 0.143943 10.108305
2009-09-22 07:02:58 51°14.088 2°55.435 20.7172 0.025949 0.143965 10.108305
2009-09-22 07:03:04 51°14.102 2°55.423 20.7286 0.025949 0.143938 10.073481
2009-09-22 07:03:09 51°14.114 2°55.414 20.7375 0.025949 0.143933 10.073481
2009-09-22 07:03:14 51°14.126 2°55.403 20.6963 0.025949 0.143938 10.073481
2009-09-22 07:03:18 51°14.136 2°55.395 20.6999 0.025949 0.143928 10.108305
2009-09-22 07:03:23 51°14.147 2°55.384 20.7296 0.025949 0.143928 10.108305
2009-09-22 07:03:29 51°14.161 2°55.37 20.7373 0.025949 0.143916 10.108305
2009-09-22 07:03:34 51°14.173 2°55.359 20.7555 0.025949 0.143913 10.073481
2009-09-22 07:03:39 51°14.184 2°55.347 20.7588 0.025949 0.143913 10.073481
2009-09-22 07:03:43 51°14.193 2°55.337 20.7519 0.025949 0.143913 10.073481
2009-09-22 07:03:49 51°14.206 2°55.322 20.75 0.025949 0.143916 10.108305
2009-09-22 07:03:54 51°14.217 2°55.308 20.7502 0.025949 0.143913 10.073481
2009-09-22 07:03:59 51°14.227 2°55.294 20.7508 0.025949 0.143913 10.073481
2009-09-22 07:04:04 51°14.238 2°55.28 20.7591 0.025949 0.143913 10.108305
2009-09-22 07:04:09 51°14.248 2°55.264 20.727 0.025949 0.143913 10.073481
2009-09-22 07:04:14 51°14.257 2°55.248 20.7141 0.025949 0.143918 10.073481
2009-09-22 07:04:19 51°14.267 2°55.232 20.7307 0.025949 0.143921 10.073481
2009-09-22 07:04:23 51°14.275 2°55.219 20.7265 0.025949 0.143921 10.073481
2009-09-22 07:04:29 51°14.287 2°55.199 20.741 0.025949 0.143916 10.073481
2009-09-22 07:04:33 51°14.295 2°55.185 20.721 0.025949 0.143911 10.073481
2009-09-22 07:04:38 51°14.305 2°55.167 20.6693 0.025949 0.143931 10.073481
2009-09-22 07:04:43 51°14.315 2°55.148 20.6414 0.025949 0.143958 10.073481
2009-09-22 07:04:49 51°14.327 2°55.126 20.695 0.025949 0.143968 10.073481
2009-09-22 07:04:53 51°14.336 2°55.112 20.5991 0.025949 0.143968 10.073481
2009-09-22 07:04:58 51°14.346 2°55.093 20.5555 0.025949 0.14399 10.073481
2009-09-22 07:05:03 51°14.357 2°55.074 20.6002 0.025949 0.144027 10.073481
2009-09-22 07:05:08 51°14.368 2°55.058 20.699 0.025949 0.14401 10.073481
2009-09-22 07:05:13 51°14.38 2°55.041 20.681 0.025949 0.143988 10.108305
2009-09-22 07:05:18 51°14.392 2°55.025 20.6696 0.025949 0.143978 10.108305
2009-09-22 07:05:23 51°14.404 2°55.009 20.6608 0.025949 0.143965 10.073481
2009-09-22 07:05:28 51°14.416 2°54.994 20.6928 0.025949 0.143965 10.073481
2009-09-22 07:05:33 51°14.428 2°54.978 20.6888 0.025949 0.143963 10.108305
2009-09-22 07:05:38 51°14.441 2°54.963 20.6507 0.025949 0.143983 10.108305
2009-09-22 07:05:43 51°14.453 2°54.948 20.6999 0.025949 0.143983 10.108305
2009-09-22 07:05:48 51°14.466 2°54.934 20.7208 0.026051 0.144557 10.108305
2009-09-22 07:05:53 51°14.479 2°54.92 20.6988 0.026051 0.144557 10.108305
2009-09-22 07:05:58 51°14.492 2°54.905 20.6735 0.025949 0.143997 10.108305
2009-09-22 07:06:02 51°14.502 2°54.892 20.6862 0.025949 0.14401 10.108305
2009-09-22 07:06:08 51°14.517 2°54.875 20.717 0.026051 0.144584 10.108305
2009-09-22 07:06:13 51°14.531 2°54.862 20.7299 0.026257 0.145731 10.108305
2009-09-22 07:06:18 51°14.544 2°54.85 20.6522 0.026154 0.145179 10.143129
2009-09-22 07:06:22 51°14.555 2°54.838 20.703 0.026154 0.145179 10.143129
2009-09-22 07:06:28 51°14.571 2°54.823 20.7047 0.026154 0.145179 10.143129
2009-09-22 07:06:33 51°14.584 2°54.81 20.7139 0.026154 0.145174 10.108305
2009-09-22 07:06:38 51°14.598 2°54.797 20.7077 0.026154 0.145174 10.108305
2009-09-22 07:06:43 51°14.611 2°54.784 20.6731 0.026154 0.145174 10.143129
2009-09-22 07:06:48 51°14.625 2°54.771 20.6963 0.026154 0.145171 10.108305
2009-09-22 07:06:53 51°14.638 2°54.758 20.6917 0.026154 0.145171 10.108305
2009-09-22 07:06:58 51°14.652 2°54.744 20.6793 0.026154 0.145166 10.108305
2009-09-22 07:07:03 51°14.665 2°54.731 20.6878 0.026154 0.145159 10.108305
2009-09-22 07:07:08 51°14.679 2°54.718 20.7011 0.026154 0.145144 10.143129
2009-09-22 07:07:13 51°14.693 2°54.705 20.6982 0.026154 0.145139 10.143129
2009-09-22 07:07:18 51°14.706 2°54.692 20.7005 0.026154 0.145144 10.143129
2009-09-22 07:07:23 51°14.72 2°54.68 20.6868 0.026154 0.145151 10.143129
2009-09-22 07:07:28 51°14.733 2°54.666 20.6985 0.026154 0.145151 10.143129
2009-09-22 07:07:33 51°14.746 2°54.654 20.6963 0.026154 0.145156 10.108305
2009-09-22 07:07:38 51°14.759 2°54.64 20.6991 0.026051 0.144589 10.108305
2009-09-22 07:07:42 51°14.77 2°54.63 20.704 0.026051 0.144589 10.143129
2009-09-22 07:07:48 51°14.787 2°54.614 20.7154 0.026051 0.144589 10.108305
2009-09-22 07:07:53 51°14.801 2°54.602 20.7133 0.026051 0.144589 10.108305
2009-09-22 07:07:58 51°14.814 2°54.589 20.7141 0.026051 0.144594 10.143129
2009-09-22 07:08:02 51°14.825 2°54.579 20.7014 0.026051 0.144579 10.108305
2009-09-22 07:08:08 51°14.841 2°54.564 20.7083 0.026051 0.144537 10.108305
2009-09-22 07:08:13 51°14.855 2°54.551 20.6503 0.026051 0.144535 10.108305
2009-09-22 07:08:18 51°14.868 2°54.538 20.6741 0.026051 0.144545 10.108305
2009-09-22 07:08:22 51°14.879 2°54.527 20.6936 0.026051 0.144545 10.108305
2009-09-22 07:08:28 51°14.895 2°54.512 20.7092 0.026051 0.144559 10.108305
2009-09-22 07:08:33 51°14.908 2°54.5 20.7081 0.026154 0.145149 10.108305
2009-09-22 07:08:38 51°14.922 2°54.487 20.6686 0.026154 0.145161 10.108305
2009-09-22 07:08:43 51°14.936 2°54.476 20.6749 0.026257 0.145736 10.143129
2009-09-22 07:08:48 51°14.949 2°54.464 20.6805 0.026257 0.145754 10.143129
2009-09-22 07:08:53 51°14.963 2°54.452 20.6695 0.026154 0.145179 10.108305
2009-09-22 07:08:58 51°14.977 2°54.44 20.6799 0.026154 0.145179 10.108305
2009-09-22 07:09:03 51°14.99 2°54.428 20.6707 0.02636 0.146304 10.108305
2009-09-22 07:09:08 51°15.004 2°54.416 20.6585 0.026257 0.145726 10.143129
2009-09-22 07:09:13 51°15.018 2°54.404 20.6719 0.026257 0.145734 10.108305
2009-09-22 07:09:18 51°15.032 2°54.393 20.6727 0.026257 0.145749 10.108305
2009-09-22 07:09:23 51°15.046 2°54.381 20.6608 0.026257 0.145749 10.108305
2009-09-22 07:09:28 51°15.06 2°54.369 20.6695 0.026257 0.145764 10.108305
2009-09-22 07:09:33 51°15.074 2°54.358 20.6564 0.026154 0.145206 10.108305
2009-09-22 07:09:38 51°15.088 2°54.346 20.6844 0.026154 0.145224 10.108305
2009-09-22 07:09:43 51°15.102 2°54.335 20.6736 0.026154 0.145239 10.108305
2009-09-22 07:09:48 51°15.115 2°54.323 20.6752 0.026154 0.145246 10.108305
2009-09-22 07:09:54 51°15.132 2°54.309 20.6794 0.026154 0.145246 10.108305
2009-09-22 07:09:59 51°15.146 2°54.297 20.6481 0.026154 0.145252 10.108305
2009-09-22 07:10:03 51°15.157 2°54.287 20.6492 0.026154 0.145259 10.108305
2009-09-22 07:10:09 51°15.173 2°54.272 20.6746 0.026154 0.145252 10.108305
2009-09-22 07:10:14 51°15.188 2°54.261 20.6493 0.026154 0.145254 10.108305
2009-09-22 07:10:19 51°15.201 2°54.249 20.6781 0.026154 0.145246 10.108305
2009-09-22 07:10:23 51°15.213 2°54.24 20.6637 0.026154 0.145246 10.108305
2009-09-22 07:10:29 51°15.23 2°54.226 20.6819 0.026154 0.145257 10.108305
2009-09-22 07:10:34 51°15.244 2°54.214 20.6718 0.026154 0.145269 10.108305
2009-09-22 07:10:39 51°15.258 2°54.203 20.6686 0.026154 0.145282 10.108305
2009-09-22 07:10:43 51°15.269 2°54.194 20.6839 0.026154 0.145289 10.108305
2009-09-22 07:10:48 51°15.283 2°54.182 20.6777 0.026154 0.145307 10.108305
2009-09-22 07:10:53 51°15.297 2°54.171 20.6327 0.026154 0.145324 10.108305
2009-09-22 07:10:59 51°15.314 2°54.156 20.6763 0.026154 0.145324 10.108305
2009-09-22 07:11:04 51°15.327 2°54.145 20.6475 0.026154 0.145324 10.108305
2009-09-22 07:11:09 51°15.341 2°54.132 20.6719 0.026154 0.145334 10.108305
2009-09-22 07:11:14 51°15.355 2°54.121 20.6717 0.026154 0.145347 10.108305
2009-09-22 07:11:19 51°15.369 2°54.109 20.6512 0.026154 0.145357 10.108305
2009-09-22 07:11:24 51°15.383 2°54.097 20.6696 0.026154 0.145367 10.108305
2009-09-22 07:11:29 51°15.397 2°54.085 20.673 0.026154 0.145367 10.108305
2009-09-22 07:11:34 51°15.411 2°54.073 20.6827 0.026154 0.145379 10.108305
2009-09-22 07:11:39 51°15.425 2°54.061 20.6897 0.026257 0.14598 10.108305
2009-09-22 07:11:44 51°15.439 2°54.05 20.6447 0.026257 0.146005 10.108305
2009-09-22 07:11:49 51°15.452 2°54.037 20.6707 0.026257 0.145995 10.108305
2009-09-22 07:11:54 51°15.466 2°54.024 20.6727 0.026257 0.145995 10.108305
2009-09-22 07:11:59 51°15.48 2°54.011 20.6671 0.026154 0.145414 10.108305
2009-09-22 07:12:04 51°15.493 2°53.998 20.6743 0.026154 0.145427 10.108305
2009-09-22 07:12:09 51°15.506 2°53.984 20.6706 0.026154 0.145598 10.108305
2009-09-22 07:12:14 51°15.52 2°53.97 20.6561 0.026154 0.145613 10.108305
2009-09-22 07:12:19 51°15.533 2°53.957 20.6695 0.026154 0.145598 10.108305
2009-09-22 07:12:24 51°15.546 2°53.943 20.6479 0.026154 0.145593 10.108305
2009-09-22 07:12:29 51°15.559 2°53.928 20.6609 0.026154 0.145593 10.108305
2009-09-22 07:12:34 51°15.573 2°53.914 20.6563 0.026154 0.145558 10.108305
2009-09-22 07:12:39 51°15.586 2°53.9 20.6498 0.026154 0.145575 10.108305
2009-09-22 07:12:44 51°15.599 2°53.886 20.6761 0.026154 0.14559 10.108305
2009-09-22 07:12:49 51°15.612 2°53.872 20.6704 0.026154 0.145578 10.108305
2009-09-22 07:12:54 51°15.626 2°53.858 20.6878 0.026154 0.145578 10.108305
2009-09-22 07:12:59 51°15.639 2°53.844 20.6468 0.026154 0.145593 10.108305
2009-09-22 07:13:04 51°15.652 2°53.83 20.674 0.026154 0.145613 10.108305
2009-09-22 07:13:09 51°15.666 2°53.817 20.6697 0.026154 0.145608 10.108305
2009-09-22 07:13:14 51°15.679 2°53.802 20.6468 0.026154 0.145611 10.108305
2009-09-22 07:13:19 51°15.692 2°53.789 20.6801 0.026154 0.145606 10.108305
2009-09-22 07:13:24 51°15.706 2°53.775 20.6253 0.026154 0.145606 10.108305
2009-09-22 07:13:29 51°15.719 2°53.761 20.6817 0.026154 0.145606 10.108305
2009-09-22 07:13:34 51°15.732 2°53.747 20.6533 0.026154 0.145588 10.108305
2009-09-22 07:13:39 51°15.745 2°53.732 20.6656 0.026051 0.145029 10.108305
2009-09-22 07:13:44 51°15.759 2°53.718 20.6671 0.026051 0.145051 10.108305
2009-09-22 07:13:49 51°15.772 2°53.703 20.6801 0.026051 0.145061 10.108305
2009-09-22 07:13:54 51°15.785 2°53.689 20.6703 0.026051 0.145061 10.108305
2009-09-22 07:13:59 51°15.798 2°53.675 20.6371 0.026051 0.145089 10.108305
2009-09-22 07:14:04 51°15.812 2°53.661 20.6421 0.026051 0.145097 10.108305
2009-09-22 07:14:09 51°15.825 2°53.646 20.6563 0.026051 0.145097 10.108305
2009-09-22 07:14:14 51°15.838 2°53.632 20.6802 0.026051 0.145092 10.108305
2009-09-22 07:14:19 51°15.852 2°53.618 20.6613 0.026051 0.145099 10.108305
2009-09-22 07:14:24 51°15.865 2°53.604 20.653 0.026051 0.145107 10.108305
2009-09-22 07:14:29 51°15.879 2°53.59 20.6667 0.026051 0.145107 10.108305
2009-09-22 07:14:34 51°15.892 2°53.576 20.6762 0.026051 0.145112 10.108305
2009-09-22 07:14:39 51°15.905 2°53.562 20.6716 0.026051 0.145112 10.108305
2009-09-22 07:14:44 51°15.918 2°53.548 20.6662 0.026051 0.145119 10.108305
2009-09-22 07:14:49 51°15.932 2°53.534 20.6651 0.026051 0.145114 10.108305
2009-09-22 07:14:54 51°15.945 2°53.519 20.6509 0.026051 0.145114 10.108305
2009-09-22 07:14:59 51°15.958 2°53.505 20.6625 0.026051 0.145124 10.108305
2009-09-22 07:15:04 51°15.972 2°53.491 20.6547 0.026051 0.145127 10.108305
2009-09-22 07:15:09 51°15.985 2°53.476 20.6642 0.026051 0.145129 10.108305
2009-09-22 07:15:14 51°15.998 2°53.461 20.6678 0.026051 0.145132 10.108305
2009-09-22 07:15:19 51°16.011 2°53.447 20.6614 0.026051 0.145134 10.108305
2009-09-22 07:15:24 51°16.024 2°53.432 20.6591 0.026051 0.145134 10.108305
2009-09-22 07:15:29 51°16.038 2°53.418 20.6522 0.026051 0.145137 10.108305
2009-09-22 07:15:34 51°16.051 2°53.404 20.6757 0.026051 0.145144 10.108305
2009-09-22 07:15:39 51°16.065 2°53.39 20.6565 0.026051 0.145152 10.108305
2009-09-22 07:15:44 51°16.078 2°53.375 20.6499 0.026051 0.145157 10.108305
2009-09-22 07:15:49 51°16.092 2°53.362 20.6495 0.026051 0.145159 10.108305
2009-09-22 07:15:54 51°16.105 2°53.347 20.6589 0.026051 0.145167 10.108305
2009-09-22 07:15:59 51°16.118 2°53.333 20.677 0.026051 0.145167 10.108305
2009-09-22 07:16:04 51°16.132 2°53.319 20.6617 0.026051 0.145185 10.108305
2009-09-22 07:16:09 51°16.145 2°53.305 20.6472 0.026051 0.145195 10.108305
2009-09-22 07:16:14 51°16.159 2°53.29 20.6533 0.026051 0.145202 10.108305
2009-09-22 07:16:19 51°16.172 2°53.276 20.6764 0.026051 0.14527 10.073481
2009-09-22 07:16:24 51°16.185 2°53.262 20.6676 0.026051 0.145333 10.073481
2009-09-22 07:16:29 51°16.199 2°53.247 20.6526 0.026051 0.145333 10.073481
2009-09-22 07:16:34 51°16.212 2°53.233 20.673 0.026051 0.145333 10.108305
2009-09-22 07:16:39 51°16.226 2°53.219 20.6799 0.026051 0.145363 10.108305
2009-09-22 07:16:44 51°16.239 2°53.205 20.6515 0.026051 0.145368 10.108305
2009-09-22 07:16:49 51°16.253 2°53.191 20.6724 0.026051 0.145358 10.108305
2009-09-22 07:16:54 51°16.266 2°53.176 20.6464 0.026051 0.145358 10.108305
2009-09-22 07:16:59 51°16.279 2°53.162 20.6551 0.026051 0.145351 10.108305
2009-09-22 07:17:04 51°16.293 2°53.148 20.6448 0.026051 0.145348 10.108305
2009-09-22 07:17:09 51°16.307 2°53.134 20.6637 0.026051 0.145343 10.108305
2009-09-22 07:17:14 51°16.32 2°53.12 20.6702 0.026051 0.145336 10.108305
2009-09-22 07:17:19 51°16.333 2°53.106 20.6727 0.026051 0.145336 10.108305
2009-09-22 07:17:24 51°16.347 2°53.092 20.638 0.026051 0.145336 10.108305
2009-09-22 07:17:29 51°16.361 2°53.077 20.6784 0.026051 0.145338 10.108305
2009-09-22 07:17:34 51°16.374 2°53.063 20.6582 0.026051 0.145333 10.073481
2009-09-22 07:17:39 51°16.388 2°53.049 20.6765 0.026051 0.145323 10.108305
2009-09-22 07:17:44 51°16.401 2°53.034 20.6613 0.026051 0.145326 10.108305
2009-09-22 07:17:49 51°16.415 2°53.02 20.6764 0.026051 0.145326 10.108305
2009-09-22 07:17:54 51°16.428 2°53.006 20.6677 0.026154 0.145909 10.108305
2009-09-22 07:17:59 51°16.442 2°52.992 20.6871 0.026154 0.145909 10.108305
2009-09-22 07:18:04 51°16.455 2°52.978 20.6724 0.026154 0.145921 10.108305
2009-09-22 07:18:09 51°16.469 2°52.964 20.646 0.026154 0.145926 10.108305
2009-09-22 07:18:14 51°16.483 2°52.95 20.6816 0.026051 0.145336 10.108305
2009-09-22 07:18:19 51°16.496 2°52.936 20.6891 0.026154 0.145901 10.108305
2009-09-22 07:18:24 51°16.51 2°52.923 20.688 0.026154 0.145901 10.108305
2009-09-22 07:18:29 51°16.523 2°52.91 20.6582 0.026257 0.146487 10.108305
2009-09-22 07:18:34 51°16.537 2°52.896 20.6837 0.026154 0.145906 10.108305
2009-09-22 07:18:39 51°16.551 2°52.882 20.6614 0.026154 0.145906 10.108305
2009-09-22 07:18:44 51°16.565 2°52.869 20.6827 0.026154 0.145934 10.108305
2009-09-22 07:18:49 51°16.578 2°52.855 20.6737 0.026154 0.145957 10.108305
2009-09-22 07:18:54 51°16.592 2°52.842 20.6734 0.026154 0.145957 10.108305
2009-09-22 07:18:59 51°16.606 2°52.828 20.6824 0.026154 0.145962 10.108305
2009-09-22 07:19:04 51°16.62 2°52.815 20.6665 0.026154 0.145959 10.108305
2009-09-22 07:19:09 51°16.634 2°52.801 20.6764 0.026154 0.145942 10.108305
2009-09-22 07:19:14 51°16.647 2°52.787 20.6522 0.026154 0.145931 10.108305
2009-09-22 07:19:19 51°16.66 2°52.774 20.6853 0.026154 0.145957 10.108305
2009-09-22 07:19:24 51°16.674 2°52.76 20.6686 0.026154 0.14598 10.108305
2009-09-22 07:19:29 51°16.687 2°52.746 20.6895 0.026154 0.14598 10.108305
2009-09-22 07:19:34 51°16.701 2°52.732 20.6641 0.026154 0.14603 10.073481
2009-09-22 07:19:39 51°16.715 2°52.718 20.6661 0.026051 0.145452 10.073481
2009-09-22 07:19:44 51°16.729 2°52.704 20.679 0.026051 0.145426 10.108305
2009-09-22 07:19:48 51°16.74 2°52.693 20.6777 0.026051 0.145414 10.073481
2009-09-22 07:19:54 51°16.756 2°52.677 20.666 0.026051 0.145424 10.073481
2009-09-22 07:19:59 51°16.769 2°52.663 20.6529 0.026051 0.145424 10.073481
2009-09-22 07:20:04 51°16.782 2°52.65 20.684 0.026051 0.145429 10.108305
2009-09-22 07:20:09 51°16.796 2°52.637 20.673 0.026051 0.145434 10.073481
2009-09-22 07:20:14 51°16.81 2°52.624 20.6473 0.026051 0.145442 10.073481
2009-09-22 07:20:19 51°16.824 2°52.611 20.6872 0.026051 0.145442 10.108305
2009-09-22 07:20:24 51°16.838 2°52.599 20.6902 0.026051 0.145434 10.108305
2009-09-22 07:20:29 51°16.852 2°52.587 20.6894 0.026051 0.145434 10.108305
2009-09-22 07:20:34 51°16.866 2°52.575 20.6774 0.026051 0.145442 10.108305
2009-09-22 07:20:39 51°16.88 2°52.563 20.6836 0.026051 0.145447 10.073481
2009-09-22 07:20:44 51°16.894 2°52.551 20.68 0.026051 0.145447 10.108305
2009-09-22 07:20:49 51°16.908 2°52.539 20.6824 0.026154 0.146028 10.108305
2009-09-22 07:20:54 51°16.922 2°52.528 20.6851 0.026154 0.146028 10.108305
2009-09-22 07:20:59 51°16.937 2°52.516 20.6981 0.026051 0.145459 10.073481
2009-09-22 07:21:04 51°16.951 2°52.505 20.6502 0.026051 0.145477 10.073481
2009-09-22 07:21:09 51°16.965 2°52.494 20.6791 0.026051 0.145497 10.108305
2009-09-22 07:21:14 51°16.979 2°52.483 20.6573 0.026051 0.14554 10.073481
2009-09-22 07:21:19 51°16.992 2°52.471 20.6829 0.026051 0.145571 10.073481
2009-09-22 07:21:24 51°17.006 2°52.46 20.6918 0.026051 0.145573 10.108305
2009-09-22 07:21:29 51°17.02 2°52.449 20.6871 0.026051 0.145573 10.108305
2009-09-22 07:21:34 51°17.034 2°52.437 20.6901 0.026051 0.145591 10.073481
2009-09-22 07:21:39 51°17.048 2°52.426 20.6691 0.026051 0.145611 10.073481
2009-09-22 07:21:44 51°17.063 2°52.415 20.6847 0.026051 0.145631 10.108305
2009-09-22 07:21:49 51°17.077 2°52.404 20.6916 0.026051 0.145611 10.073481
2009-09-22 07:21:54 51°17.091 2°52.393 20.6971 0.026154 0.14618 10.108305
2009-09-22 07:21:59 51°17.106 2°52.382 20.6904 0.026154 0.14618 10.108305
2009-09-22 07:22:04 51°17.12 2°52.371 20.6902 0.026154 0.146173 10.073481
2009-09-22 07:22:09 51°17.134 2°52.36 20.6628 0.026051 0.145578 10.073481
2009-09-22 07:22:14 51°17.148 2°52.349 20.6941 0.026154 0.146152 10.073481
2009-09-22 07:22:19 51°17.162 2°52.338 20.6558 0.026257 0.146747 10.073481
2009-09-22 07:22:24 51°17.177 2°52.327 20.6832 0.026257 0.146747 10.073481
2009-09-22 07:22:29 51°17.191 2°52.316 20.6691 0.026257 0.146744 10.108305
2009-09-22 07:22:34 51°17.205 2°52.305 20.6755 0.026154 0.146183 10.073481
2009-09-22 07:22:39 51°17.22 2°52.295 20.6722 0.026154 0.146185 10.073481
2009-09-22 07:22:44 51°17.234 2°52.283 20.685 0.026154 0.146155 10.073481
2009-09-22 07:22:49 51°17.249 2°52.273 20.6581 0.026154 0.14619 10.073481
2009-09-22 07:22:54 51°17.262 2°52.262 20.643 0.026154 0.14619 10.073481
2009-09-22 07:22:59 51°17.277 2°52.254 20.658 0.026772 0.149795 10.073481
2009-09-22 07:23:04 51°17.292 2°52.246 20.6736 0.026566 0.148675 10.108305
2009-09-22 07:23:09 51°17.307 2°52.239 20.6729 0.027183 0.152196 10.108305
2009-09-22 07:23:14 51°17.322 2°52.234 20.6975 0.026463 0.148141 10.108305
2009-09-22 07:23:19 51°17.337 2°52.228 20.679 0.026566 0.148688 10.108305
2009-09-22 07:23:24 51°17.352 2°52.224 20.6475 0.026463 0.148123 10.108305
2009-09-22 07:23:29 51°17.367 2°52.218 20.6938 0.026463 0.148123 10.108305
2009-09-22 07:23:34 51°17.383 2°52.215 20.6708 0.026978 0.15103 10.108305
2009-09-22 07:23:39 51°17.398 2°52.211 20.6974 0.02636 0.147565 10.108305
2009-09-22 07:23:44 51°17.413 2°52.208 20.6589 0.026463 0.148144 10.108305
2009-09-22 07:23:49 51°17.429 2°52.205 20.6949 0.02636 0.147511 10.108305
2009-09-22 07:23:54 51°17.444 2°52.202 20.6594 0.02636 0.147511 10.108305
2009-09-22 07:23:59 51°17.459 2°52.199 20.6565 0.026566 0.148654 10.143129
2009-09-22 07:24:04 51°17.475 2°52.197 20.6814 0.026463 0.148056 10.108305
2009-09-22 07:24:09 51°17.49 2°52.194 20.6953 0.02636 0.147478 10.108305
2009-09-22 07:24:14 51°17.505 2°52.192 20.6962 0.026257 0.146916 10.108305
2009-09-22 07:24:19 51°17.521 2°52.189 20.6678 0.02636 0.147517 10.108305
2009-09-22 07:24:24 51°17.536 2°52.187 20.6787 0.02636 0.147517 10.108305
2009-09-22 07:24:29 51°17.552 2°52.184 20.6938 0.026257 0.146949 10.143129
2009-09-22 07:24:34 51°17.567 2°52.182 20.6932 0.026257 0.146949 10.143129
2009-09-22 07:24:39 51°17.583 2°52.18 20.6973 0.026566 0.148696 10.143129
2009-09-22 07:24:44 51°17.598 2°52.179 20.6787 0.026257 0.146972 10.143129
2009-09-22 07:24:49 51°17.614 2°52.176 20.6892 0.026257 0.14697 10.143129
2009-09-22 07:24:54 51°17.629 2°52.175 20.6671 0.026257 0.146972 10.143129
2009-09-22 07:24:59 51°17.645 2°52.173 20.7027 0.026257 0.146972 10.143129
2009-09-22 07:25:04 51°17.66 2°52.171 20.7031 0.026257 0.146962 10.143129
2009-09-22 07:25:09 51°17.676 2°52.168 20.7008 0.026566 0.148717 10.143129
2009-09-22 07:25:14 51°17.691 2°52.166 20.6922 0.026463 0.148133 10.108305
2009-09-22 07:25:19 51°17.707 2°52.164 20.6804 0.02636 0.147568 10.143129
2009-09-22 07:25:24 51°17.723 2°52.161 20.6928 0.026257 0.147008 10.143129
2009-09-22 07:25:29 51°17.738 2°52.159 20.6739 0.026257 0.147008 10.143129
2009-09-22 07:25:34 51°17.754 2°52.157 20.6841 0.026257 0.147031 10.108305
2009-09-22 07:25:39 51°17.769 2°52.154 20.6978 0.026257 0.147059 10.143129
2009-09-22 07:25:44 51°17.784 2°52.152 20.6903 0.026257 0.147065 10.143129
2009-09-22 07:25:48 51°17.796 2°52.15 20.6759 0.026257 0.147077 10.143129
2009-09-22 07:25:54 51°17.815 2°52.148 20.7179 0.026257 0.147077 10.143129
2009-09-22 07:25:59 51°17.831 2°52.145 20.7023 0.026463 0.148255 10.143129
2009-09-22 07:26:04 51°17.846 2°52.142 20.6983 0.02636 0.147671 10.143129
2009-09-22 07:26:09 51°17.861 2°52.139 20.7097 0.026875 0.150573 10.143129
2009-09-22 07:26:14 51°17.877 2°52.138 20.6782 0.02636 0.147689 10.143129
2009-09-22 07:26:19 51°17.892 2°52.134 20.6758 0.026257 0.147116 10.143129
2009-09-22 07:26:24 51°17.908 2°52.131 20.7122 0.026257 0.147116 10.143129
2009-09-22 07:26:29 51°17.923 2°52.129 20.6774 0.02636 0.147842 10.143129
2009-09-22 07:26:34 51°17.938 2°52.126 20.6987 0.026257 0.147227 10.143129
2009-09-22 07:26:39 51°17.954 2°52.123 20.697 0.026257 0.147211 10.143129
2009-09-22 07:26:44 51°17.969 2°52.12 20.7028 0.026257 0.147209 10.143129
2009-09-22 07:26:49 51°17.984 2°52.117 20.6976 0.026257 0.14727 10.143129
2009-09-22 07:26:54 51°18 2°52.114 20.6812 0.026257 0.147338 10.143129
2009-09-22 07:26:59 51°18.015 2°52.111 20.7154 0.026257 0.147338 10.143129
2009-09-22 07:27:04 51°18.03 2°52.107 20.7023 0.02636 0.147863 10.143129
2009-09-22 07:27:09 51°18.045 2°52.104 20.6799 0.026257 0.147252 10.143129
2009-09-22 07:27:14 51°18.061 2°52.1 20.6889 0.026257 0.147247 10.143129
2009-09-22 07:27:19 51°18.076 2°52.097 20.706 0.026257 0.147245 10.143129
2009-09-22 07:27:24 51°18.092 2°52.094 20.6875 0.026257 0.14725 10.143129
2009-09-22 07:27:29 51°18.107 2°52.091 20.7018 0.026257 0.14725 10.143129
2009-09-22 07:27:34 51°18.123 2°52.088 20.6924 0.026257 0.147245 10.143129
2009-09-22 07:27:39 51°18.138 2°52.084 20.7059 0.026154 0.146673 10.143129
2009-09-22 07:27:44 51°18.153 2°52.081 20.7135 0.026257 0.147268 10.143129
2009-09-22 07:27:49 51°18.169 2°52.079 20.6883 0.026154 0.14675 10.143129
2009-09-22 07:27:54 51°18.184 2°52.075 20.7006 0.026154 0.14675 10.143129
2009-09-22 07:27:59 51°18.199 2°52.073 20.7211 0.026566 0.149069 10.143129
2009-09-22 07:28:04 51°18.215 2°52.07 20.6952 0.02636 0.147917 10.177953
2009-09-22 07:28:09 51°18.23 2°52.067 20.7108 0.026669 0.149641 10.143129
2009-09-22 07:28:14 51°18.245 2°52.064 20.6917 0.02636 0.147891 10.143129
2009-09-22 07:28:19 51°18.26 2°52.062 20.6928 0.026875 0.150798 10.143129
2009-09-22 07:28:24 51°18.276 2°52.059 20.7133 0.026875 0.150798 10.143129
2009-09-22 07:28:29 51°18.291 2°52.055 20.7173 0.026463 0.148465 10.143129
2009-09-22 07:28:34 51°18.307 2°52.053 20.7101 0.02636 0.14786 10.143129
2009-09-22 07:28:39 51°18.322 2°52.05 20.7028 0.02636 0.147886 10.108305
2009-09-22 07:28:44 51°18.338 2°52.046 20.6964 0.026257 0.147278 10.108305
2009-09-22 07:28:49 51°18.353 2°52.043 20.7016 0.026257 0.147283 10.143129
2009-09-22 07:28:54 51°18.369 2°52.04 20.7084 0.026257 0.147265 10.108305
2009-09-22 07:28:59 51°18.384 2°52.037 20.7084 0.026257 0.147265 10.108305
2009-09-22 07:29:04 51°18.399 2°52.034 20.6958 0.026257 0.147291 10.143129
2009-09-22 07:29:09 51°18.415 2°52.031 20.6965 0.02636 0.147894 10.108305
2009-09-22 07:29:14 51°18.43 2°52.027 20.7232 0.026257 0.147301 10.143129
2009-09-22 07:29:19 51°18.446 2°52.023 20.696 0.026257 0.147294 10.143129
2009-09-22 07:29:24 51°18.461 2°52.02 20.7226 0.026257 0.147294 10.143129
2009-09-22 07:29:29 51°18.476 2°52.016 20.7161 0.026257 0.147301 10.143129
2009-09-22 07:29:34 51°18.492 2°52.013 20.7232 0.026257 0.147309 10.143129
2009-09-22 07:29:39 51°18.507 2°52.009 20.6934 0.026154 0.146735 10.143129
2009-09-22 07:29:44 51°18.523 2°52.005 20.7207 0.026154 0.14673 10.143129
2009-09-22 07:29:49 51°18.538 2°52.002 20.7094 0.026154 0.146727 10.177953
2009-09-22 07:29:54 51°18.553 2°51.997 20.7027 0.026154 0.146727 10.177953
2009-09-22 07:29:59 51°18.568 2°51.994 20.7176 0.026154 0.14674 10.177953
2009-09-22 07:30:04 51°18.584 2°51.99 20.698 0.026154 0.146725 10.143129
2009-09-22 07:30:09 51°18.6 2°51.987 20.7246 0.026154 0.146717 10.143129
2009-09-22 07:30:14 51°18.615 2°51.983 20.7209 0.026154 0.146714 10.143129
2009-09-22 07:30:19 51°18.631 2°51.979 20.7256 0.026154 0.14673 10.143129
2009-09-22 07:30:24 51°18.646 2°51.976 20.7218 0.026154 0.146743 10.143129
2009-09-22 07:30:28 51°18.659 2°51.973 20.7051 0.026154 0.146743 10.143129
2009-09-22 07:30:34 51°18.677 2°51.969 20.7061 0.026154 0.146756 10.143129
2009-09-22 07:30:39 51°18.693 2°51.965 20.7158 0.026154 0.14675 10.143129
2009-09-22 07:30:44 51°18.708 2°51.96 20.72 0.02636 0.147922 10.143129
2009-09-22 07:30:49 51°18.724 2°51.957 20.7276 0.026257 0.147361 10.143129
2009-09-22 07:30:54 51°18.739 2°51.953 20.7251 0.026257 0.147384 10.143129
2009-09-22 07:30:59 51°18.755 2°51.95 20.7343 0.026257 0.147384 10.143129
2009-09-22 07:31:04 51°18.77 2°51.945 20.7054 0.026257 0.147384 10.143129
2009-09-22 07:31:09 51°18.786 2°51.942 20.7138 0.026257 0.147402 10.143129
2009-09-22 07:31:14 51°18.801 2°51.937 20.7196 0.02636 0.147959 10.143129
2009-09-22 07:31:19 51°18.816 2°51.934 20.7139 0.026257 0.147402 10.143129
2009-09-22 07:31:24 51°18.832 2°51.93 20.7231 0.026257 0.147402 10.143129
2009-09-22 07:31:29 51°18.847 2°51.926 20.7094 0.026257 0.147397 10.177953
2009-09-22 07:31:34 51°18.862 2°51.923 20.728 0.026257 0.14741 10.143129
2009-09-22 07:31:39 51°18.878 2°51.919 20.7329 0.026463 0.148525 10.143129
2009-09-22 07:31:44 51°18.893 2°51.915 20.7199 0.026257 0.147361 10.143129
2009-09-22 07:31:49 51°18.908 2°51.911 20.7284 0.026257 0.147384 10.143129
2009-09-22 07:31:54 51°18.924 2°51.908 20.7225 0.026257 0.147384 10.143129
2009-09-22 07:31:59 51°18.939 2°51.904 20.7324 0.026257 0.147402 10.143129
2009-09-22 07:32:04 51°18.954 2°51.9 20.7184 0.026154 0.146804 10.143129
2009-09-22 07:32:09 51°18.969 2°51.897 20.7354 0.026257 0.147379 10.143129
2009-09-22 07:32:14 51°18.985 2°51.894 20.7332 0.026154 0.14681 10.177953
2009-09-22 07:32:19 51°19 2°51.89 20.7296 0.026154 0.146802 10.143129
2009-09-22 07:32:24 51°19.016 2°51.886 20.7292 0.026154 0.146799 10.143129
2009-09-22 07:32:29 51°19.031 2°51.882 20.7259 0.026154 0.146799 10.143129
2009-09-22 07:32:34 51°19.047 2°51.879 20.7191 0.026154 0.14681 10.143129
2009-09-22 07:32:39 51°19.062 2°51.876 20.7126 0.026257 0.147389 10.143129
2009-09-22 07:32:44 51°19.077 2°51.872 20.7486 0.02636 0.147987 10.177953
2009-09-22 07:32:49 51°19.093 2°51.869 20.7307 0.02636 0.148013 10.177953
2009-09-22 07:32:54 51°19.108 2°51.865 20.7286 0.02636 0.148013 10.177953
2009-09-22 07:32:59 51°19.123 2°51.861 20.7343 0.026257 0.147415 10.143129
2009-09-22 07:33:04 51°19.139 2°51.858 20.738 0.026257 0.147436 10.177953
2009-09-22 07:33:09 51°19.154 2°51.855 20.7462 0.026257 0.147438 10.177953
2009-09-22 07:33:14 51°19.169 2°51.851 20.7418 0.02636 0.148042 10.177953
2009-09-22 07:33:19 51°19.184 2°51.848 20.7324 0.026257 0.147446 10.143129
2009-09-22 07:33:24 51°19.2 2°51.844 20.7389 0.026257 0.147446 10.143129
2009-09-22 07:33:29 51°19.215 2°51.841 20.7483 0.026257 0.147436 10.177953
2009-09-22 07:33:34 51°19.23 2°51.837 20.7293 0.026257 0.147438 10.177953
2009-09-22 07:33:39 51°19.246 2°51.834 20.7478 0.02636 0.148031 10.143129
2009-09-22 07:33:44 51°19.261 2°51.829 20.7476 0.026257 0.147433 10.177953
2009-09-22 07:33:49 51°19.276 2°51.826 20.7369 0.026257 0.147459 10.177953
2009-09-22 07:33:54 51°19.291 2°51.822 20.7489 0.026463 0.148619 10.177953
2009-09-22 07:33:59 51°19.306 2°51.819 20.747 0.026463 0.148619 10.177953
2009-09-22 07:34:04 51°19.322 2°51.816 20.7447 0.02636 0.148044 10.177953
2009-09-22 07:34:09 51°19.337 2°51.811 20.7388 0.026257 0.147462 10.143129
2009-09-22 07:34:14 51°19.352 2°51.809 20.7295 0.026257 0.14748 10.177953
2009-09-22 07:34:19 51°19.368 2°51.804 20.7474 0.026463 0.148669 10.177953
2009-09-22 07:34:24 51°19.383 2°51.801 20.7247 0.026257 0.147485 10.177953
2009-09-22 07:34:29 51°19.398 2°51.798 20.7326 0.026257 0.147485 10.177953
2009-09-22 07:34:34 51°19.414 2°51.795 20.7505 0.026566 0.149255 10.177953
2009-09-22 07:34:39 51°19.429 2°51.791 20.7514 0.02636 0.148042 10.177953
2009-09-22 07:34:44 51°19.444 2°51.788 20.7476 0.02636 0.148029 10.177953
2009-09-22 07:34:49 51°19.459 2°51.784 20.7547 0.02636 0.148034 10.177953
2009-09-22 07:34:54 51°19.474 2°51.781 20.7442 0.02636 0.148034 10.177953
2009-09-22 07:34:59 51°19.49 2°51.778 20.747 0.026463 0.148604 10.177953
2009-09-22 07:35:04 51°19.505 2°51.774 20.7505 0.02636 0.148016 10.177953
2009-09-22 07:35:09 51°19.52 2°51.77 20.7401 0.02636 0.148031 10.177953
2009-09-22 07:35:14 51°19.536 2°51.767 20.749 0.02636 0.148036 10.212777
2009-09-22 07:35:19 51°19.551 2°51.763 20.7435 0.026257 0.147464 10.177953
2009-09-22 07:35:24 51°19.566 2°51.759 20.7597 0.026257 0.147464 10.177953
2009-09-22 07:35:29 51°19.581 2°51.756 20.7563 0.026257 0.147475 10.177953
2009-09-22 07:35:34 51°19.597 2°51.752 20.7405 0.026257 0.147511 10.177953
2009-09-22 07:35:39 51°19.612 2°51.748 20.7615 0.026257 0.147503 10.177953
2009-09-22 07:35:44 51°19.627 2°51.744 20.7457 0.026257 0.147506 10.177953
2009-09-22 07:35:48 51°19.64 2°51.742 20.7606 0.026463 0.148708 10.212777
2009-09-22 07:35:54 51°19.658 2°51.739 20.7403 0.026257 0.147555 10.212777
2009-09-22 07:35:59 51°19.673 2°51.735 20.7563 0.026257 0.147555 10.212777
2009-09-22 07:36:04 51°19.688 2°51.732 20.7552 0.026463 0.148719 10.212777
2009-09-22 07:36:09 51°19.704 2°51.729 20.7668 0.026978 0.151618 10.212777
2009-09-22 07:36:14 51°19.719 2°51.727 20.7576 0.026463 0.148716 10.212777
2009-09-22 07:36:19 51°19.734 2°51.724 20.7371 0.027183 0.152738 10.212777
2009-09-22 07:36:24 51°19.75 2°51.722 20.7569 0.026566 0.149247 10.212777
2009-09-22 07:36:29 51°19.765 2°51.72 20.7616 0.026566 0.149247 10.212777
2009-09-22 07:36:34 51°19.781 2°51.717 20.7624 0.026772 0.150392 10.212777
2009-09-22 07:36:39 51°19.796 2°51.714 20.7655 0.02636 0.148075 10.212777
2009-09-22 07:36:44 51°19.812 2°51.713 20.7543 0.026566 0.149249 10.212777
2009-09-22 07:36:49 51°19.827 2°51.711 20.7533 0.026669 0.149798 10.212777
2009-09-22 07:36:54 51°19.843 2°51.709 20.757 0.026669 0.149798 10.212777
2009-09-22 07:36:59 51°19.858 2°51.707 20.7556 0.026463 0.148643 10.212777
2009-09-22 07:37:04 51°19.874 2°51.705 20.7754 0.027595 0.155061 10.212777
2009-09-22 07:37:09 51°19.889 2°51.703 20.7612 0.026772 0.150435 10.212777
2009-09-22 07:37:14 51°19.905 2°51.701 20.7698 0.027492 0.154501 10.212777
2009-09-22 07:37:19 51°19.92 2°51.699 20.7655 0.026566 0.149265 10.212777
2009-09-22 07:37:24 51°19.935 2°51.696 20.7643 0.026566 0.149244 10.212777
2009-09-22 07:37:29 51°19.951 2°51.694 20.776 0.026566 0.149244 10.212777
2009-09-22 07:37:34 51°19.966 2°51.692 20.7639 0.026566 0.149249 10.247601
2009-09-22 07:37:39 51°19.982 2°51.688 20.7632 0.027081 0.152154 10.247601
2009-09-22 07:37:44 51°19.998 2°51.687 20.7597 0.026669 0.149851 10.212777
2009-09-22 07:37:49 51°20.013 2°51.684 20.7819 0.026875 0.151024 10.247601
2009-09-22 07:37:54 51°20.028 2°51.682 20.7645 0.026463 0.148674 10.247601
2009-09-22 07:37:59 51°20.044 2°51.679 20.7624 0.026463 0.148674 10.247601
2009-09-22 07:38:04 51°20.059 2°51.676 20.7657 0.02636 0.148088 10.247601
2009-09-22 07:38:09 51°20.074 2°51.673 20.7761 0.02636 0.148104 10.212777
2009-09-22 07:38:14 51°20.09 2°51.671 20.766 0.026257 0.147534 10.212777
2009-09-22 07:38:19 51°20.105 2°51.668 20.7651 0.026566 0.149281 10.247601
2009-09-22 07:38:24 51°20.121 2°51.666 20.7795 0.026566 0.149281 10.247601
2009-09-22 07:38:29 51°20.136 2°51.663 20.7753 0.02636 0.148125 10.212777
2009-09-22 07:38:34 51°20.152 2°51.662 20.7623 0.026257 0.14755 10.247601
2009-09-22 07:38:39 51°20.167 2°51.659 20.7766 0.02636 0.148138 10.247601
2009-09-22 07:38:44 51°20.183 2°51.657 20.7778 0.026463 0.148729 10.247601
2009-09-22 07:38:49 51°20.198 2°51.655 20.7612 0.026257 0.147547 10.247601
2009-09-22 07:38:54 51°20.214 2°51.653 20.7917 0.026257 0.147547 10.247601
2009-09-22 07:38:59 51°20.229 2°51.651 20.7693 0.02636 0.148125 10.247601
2009-09-22 07:39:04 51°20.244 2°51.649 20.7741 0.026257 0.147537 10.212777
2009-09-22 07:39:09 51°20.26 2°51.647 20.7801 0.02636 0.148138 10.177953
2009-09-22 07:39:14 51°20.275 2°51.644 20.7933 0.026257 0.147544 10.177953
2009-09-22 07:39:19 51°20.29 2°51.642 20.7748 0.026463 0.148719 10.212777
2009-09-22 07:39:24 51°20.306 2°51.64 20.7807 0.02636 0.148143 10.212777
2009-09-22 07:39:29 51°20.321 2°51.637 20.7736 0.02636 0.148143 10.212777
2009-09-22 07:39:34 51°20.337 2°51.635 20.7832 0.02636 0.148156 10.177953
2009-09-22 07:39:39 51°20.352 2°51.633 20.7798 0.02636 0.148151 10.212777
2009-09-22 07:39:44 51°20.368 2°51.631 20.791 0.026257 0.147565 10.212777
2009-09-22 07:39:49 51°20.384 2°51.629 20.7757 0.026257 0.147583 10.212777
2009-09-22 07:39:54 51°20.4 2°51.627 20.7886 0.026257 0.147576 10.212777
2009-09-22 07:39:59 51°20.415 2°51.625 20.784 0.026257 0.147576 10.212777
2009-09-22 07:40:04 51°20.431 2°51.623 20.7883 0.026257 0.147568 10.212777
2009-09-22 07:40:09 51°20.447 2°51.621 20.7756 0.026566 0.149305 10.212777
2009-09-22 07:40:14 51°20.463 2°51.619 20.7878 0.026566 0.149312 10.212777
2009-09-22 07:40:19 51°20.479 2°51.617 20.7894 0.02636 0.148141 10.212777
2009-09-22 07:40:24 51°20.494 2°51.615 20.794 0.02636 0.148141 10.212777
2009-09-22 07:40:29 51°20.51 2°51.612 20.7834 0.026463 0.148719 10.212777
2009-09-22 07:40:34 51°20.526 2°51.611 20.7888 0.026772 0.15048 10.212777
2009-09-22 07:40:39 51°20.541 2°51.608 20.8028 0.026669 0.149893 10.212777
2009-09-22 07:40:44 51°20.557 2°51.606 20.7948 0.026566 0.149315 10.212777
2009-09-22 07:40:49 51°20.572 2°51.604 20.7893 0.026463 0.148737 10.212777
2009-09-22 07:40:54 51°20.588 2°51.601 20.7981 0.02636 0.148167 10.212777
2009-09-22 07:40:59 51°20.604 2°51.599 20.7965 0.02636 0.148167 10.212777
2009-09-22 07:41:04 51°20.619 2°51.597 20.7939 0.02636 0.148177 10.247601
2009-09-22 07:41:09 51°20.635 2°51.594 20.7983 0.02636 0.14818 10.212777
2009-09-22 07:41:14 51°20.651 2°51.592 20.7911 0.02636 0.148193 10.212777
2009-09-22 07:41:19 51°20.666 2°51.59 20.7828 0.026772 0.150519 10.212777
2009-09-22 07:41:24 51°20.682 2°51.588 20.7858 0.026566 0.149376 10.212777
2009-09-22 07:41:29 51°20.698 2°51.587 20.7846 0.026566 0.149376 10.212777
2009-09-22 07:41:34 51°20.713 2°51.584 20.7961 0.026463 0.148763 10.212777
2009-09-22 07:41:39 51°20.729 2°51.583 20.7876 0.026463 0.148781 10.212777
2009-09-22 07:41:44 51°20.744 2°51.58 20.8031 0.026463 0.148781 10.212777
2009-09-22 07:41:49 51°20.76 2°51.578 20.8003 0.02636 0.148174 10.247601
2009-09-22 07:41:54 51°20.775 2°51.576 20.8011 0.02636 0.148174 10.247601
2009-09-22 07:41:59 51°20.791 2°51.574 20.797 0.026463 0.148797 10.247601
2009-09-22 07:42:04 51°20.806 2°51.573 20.8088 0.02636 0.148213 10.247601
2009-09-22 07:42:09 51°20.822 2°51.571 20.7989 0.026566 0.149386 10.247601
2009-09-22 07:42:14 51°20.838 2°51.569 20.7917 0.026463 0.148805 10.247601
2009-09-22 07:42:19 51°20.853 2°51.567 20.8101 0.02636 0.148258 10.247601
2009-09-22 07:42:24 51°20.869 2°51.565 20.8026 0.02636 0.148258 10.247601
2009-09-22 07:42:29 51°20.884 2°51.562 20.7969 0.02636 0.148245 10.247601
2009-09-22 07:42:34 51°20.9 2°51.561 20.8128 0.026463 0.148815 10.247601
2009-09-22 07:42:39 51°20.915 2°51.559 20.8091 0.026772 0.150549 10.212777
2009-09-22 07:42:44 51°20.931 2°51.557 20.802 0.02636 0.148227 10.247601
2009-09-22 07:42:49 51°20.946 2°51.555 20.803 0.02636 0.148224 10.212777
2009-09-22 07:42:54 51°20.961 2°51.553 20.8086 0.026566 0.149383 10.212777
2009-09-22 07:42:59 51°20.977 2°51.551 20.8059 0.026566 0.149383 10.212777
2009-09-22 07:43:04 51°20.992 2°51.549 20.8015 0.02636 0.148227 10.212777
2009-09-22 07:43:09 51°21.007 2°51.547 20.8015 0.02636 0.148232 10.212777
2009-09-22 07:43:14 51°21.023 2°51.544 20.8152 0.026875 0.151138 10.247601
2009-09-22 07:43:19 51°21.038 2°51.543 20.8234 0.02636 0.148229 10.247601
2009-09-22 07:43:24 51°21.053 2°51.541 20.8188 0.026669 0.149967 10.247601
2009-09-22 07:43:29 51°21.069 2°51.539 20.8113 0.026669 0.149967 10.247601
2009-09-22 07:43:34 51°21.084 2°51.537 20.8081 0.026463 0.148815 10.247601
2009-09-22 07:43:39 51°21.099 2°51.536 20.8238 0.026463 0.148821 10.247601
2009-09-22 07:43:44 51°21.114 2°51.533 20.8183 0.026463 0.148813 10.247601
2009-09-22 07:43:48 51°21.126 2°51.532 20.8212 0.02636 0.148234 10.247601
2009-09-22 07:43:54 51°21.145 2°51.529 20.8201 0.02636 0.148234 10.247601
2009-09-22 07:43:59 51°21.16 2°51.528 20.8235 0.026257 0.147659 10.247601
2009-09-22 07:44:04 51°21.175 2°51.525 20.8275 0.026669 0.149975 10.247601
2009-09-22 07:44:09 51°21.19 2°51.524 20.8215 0.02636 0.14825 10.247601
2009-09-22 07:44:14 51°21.205 2°51.521 20.816 0.02636 0.148242 10.247601
2009-09-22 07:44:19 51°21.22 2°51.52 20.8276 0.026257 0.147664 10.247601
2009-09-22 07:44:24 51°21.235 2°51.517 20.8289 0.026257 0.147664 10.247601
2009-09-22 07:44:29 51°21.25 2°51.515 20.8254 0.026257 0.147674 10.247601
2009-09-22 07:44:34 51°21.266 2°51.513 20.8305 0.026257 0.147685 10.247601
2009-09-22 07:44:39 51°21.281 2°51.511 20.8289 0.026257 0.147682 10.247601
2009-09-22 07:44:44 51°21.296 2°51.509 20.817 0.026154 0.147096 10.247601
2009-09-22 07:44:49 51°21.311 2°51.507 20.818 0.026154 0.147096 10.247601
2009-09-22 07:44:54 51°21.326 2°51.505 20.819 0.026154 0.147096 10.247601
2009-09-22 07:44:59 51°21.341 2°51.503 20.8304 0.026154 0.147096 10.247601
2009-09-22 07:45:04 51°21.356 2°51.5 20.8264 0.026154 0.147093 10.247601
2009-09-22 07:45:09 51°21.371 2°51.498 20.8343 0.026154 0.147101 10.247601
2009-09-22 07:45:14 51°21.386 2°51.495 20.82 0.026257 0.147687 10.247601
2009-09-22 07:45:19 51°21.401 2°51.493 20.8336 0.02636 0.148294 10.247601
2009-09-22 07:45:24 51°21.416 2°51.491 20.8311 0.02636 0.148294 10.247601
2009-09-22 07:45:29 51°21.431 2°51.488 20.8387 0.026669 0.150017 10.247601
2009-09-22 07:45:34 51°21.446 2°51.487 20.8244 0.02636 0.148268 10.282425
2009-09-22 07:45:39 51°21.461 2°51.484 20.8443 0.026463 0.148849 10.282425
2009-09-22 07:45:44 51°21.476 2°51.483 20.8468 0.02636 0.148271 10.282425
2009-09-22 07:45:49 51°21.491 2°51.479 20.8222 0.027081 0.152361 10.282425
2009-09-22 07:45:54 51°21.506 2°51.478 20.8299 0.027081 0.152361 10.282425
2009-09-22 07:45:59 51°21.521 2°51.475 20.8417 0.026463 0.148897 10.282425
2009-09-22 07:46:04 51°21.536 2°51.473 20.8358 0.02636 0.148302 10.282425
2009-09-22 07:46:09 51°21.552 2°51.47 20.834 0.026257 0.147716 10.282425
2009-09-22 07:46:14 51°21.567 2°51.469 20.8291 0.026257 0.147711 10.282425
2009-09-22 07:46:19 51°21.582 2°51.466 20.8287 0.026257 0.147726 10.247601
2009-09-22 07:46:24 51°21.597 2°51.464 20.8339 0.026154 0.147137 10.282425
2009-09-22 07:46:29 51°21.612 2°51.461 20.8354 0.026154 0.147137 10.282425
2009-09-22 07:46:34 51°21.627 2°51.459 20.8363 0.026154 0.147142 10.282425
2009-09-22 07:46:39 51°21.643 2°51.457 20.8346 0.026154 0.147135 10.282425
2009-09-22 07:46:44 51°21.658 2°51.455 20.8355 0.026154 0.14714 10.282425
2009-09-22 07:46:48 51°21.67 2°51.453 20.8392 0.026154 0.147155 10.282425
2009-09-22 07:46:54 51°21.688 2°51.451 20.8322 0.026154 0.147163 10.282425
2009-09-22 07:46:59 51°21.704 2°51.449 20.8345 0.026154 0.147163 10.282425
2009-09-22 07:47:04 51°21.719 2°51.447 20.8364 0.026772 0.150657 10.282425
2009-09-22 07:47:09 51°21.734 2°51.446 20.8428 0.026463 0.148928 10.282425
2009-09-22 07:47:14 51°21.75 2°51.443 20.8582 0.027081 0.152409 10.282425
2009-09-22 07:47:19 51°21.765 2°51.442 20.8557 0.026463 0.148923 10.352073
2009-09-22 07:47:24 51°21.78 2°51.44 20.8546 0.026463 0.148923 10.352073
2009-09-22 07:47:29 51°21.795 2°51.437 20.8414 0.02636 0.148326 10.421721
2009-09-22 07:47:34 51°21.81 2°51.435 20.8497 0.026257 0.147737 10.421721
2009-09-22 07:47:39 51°21.826 2°51.434 20.8516 0.026257 0.147737 10.421721
2009-09-22 07:47:44 51°21.841 2°51.431 20.8525 0.026257 0.14775 10.421721
2009-09-22 07:47:49 51°21.856 2°51.43 20.8658 0.026669 0.150099 10.421721
2009-09-22 07:47:54 51°21.871 2°51.428 20.8549 0.026669 0.150099 10.421721
2009-09-22 07:47:59 51°21.887 2°51.425 20.8514 0.026463 0.148933 10.456545
2009-09-22 07:48:04 51°21.902 2°51.423 20.8538 0.02636 0.148331 10.456545
2009-09-22 07:48:09 51°21.917 2°51.42 20.8467 0.026257 0.14775 10.456545
2009-09-22 07:48:14 51°21.932 2°51.418 20.854 0.026257 0.147765 10.456545
2009-09-22 07:48:19 51°21.947 2°51.416 20.8513 0.026257 0.147757 10.49137
2009-09-22 07:48:24 51°21.963 2°51.413 20.8645 0.026154 0.147168 10.49137
2009-09-22 07:48:29 51°21.978 2°51.412 20.8607 0.026154 0.147168 10.49137
2009-09-22 07:48:34 51°21.993 2°51.41 20.8524 0.026154 0.147166 10.526194
2009-09-22 07:48:39 51°22.009 2°51.408 20.8651 0.026154 0.147163 10.526194
2009-09-22 07:48:44 51°22.024 2°51.406 20.8676 0.026154 0.147166 10.526194
2009-09-22 07:48:49 51°22.04 2°51.404 20.8556 0.026154 0.147163 10.526194
2009-09-22 07:48:54 51°22.055 2°51.401 20.8638 0.026154 0.147163 10.526194
2009-09-22 07:48:59 51°22.071 2°51.399 20.8551 0.026154 0.147166 10.561018
2009-09-22 07:49:04 51°22.086 2°51.396 20.8678 0.026257 0.147765 10.561018
2009-09-22 07:49:09 51°22.101 2°51.394 20.8517 0.026154 0.147184 10.561018
2009-09-22 07:49:14 51°22.117 2°51.392 20.8535 0.026154 0.147181 10.561018
2009-09-22 07:49:19 51°22.133 2°51.391 20.8679 0.026463 0.148941 10.595842
2009-09-22 07:49:24 51°22.148 2°51.389 20.8742 0.026463 0.148941 10.595842
2009-09-22 07:49:29 51°22.163 2°51.386 20.8683 0.02636 0.148367 10.595842
2009-09-22 07:49:34 51°22.179 2°51.384 20.8573 0.026257 0.147783 10.595842
2009-09-22 07:49:39 51°22.194 2°51.382 20.8567 0.02636 0.148357 10.595842
2009-09-22 07:49:44 51°22.209 2°51.381 20.8657 0.02636 0.148362 10.595842
2009-09-22 07:49:49 51°22.225 2°51.378 20.8623 0.026257 0.147776 10.630666
2009-09-22 07:49:54 51°22.241 2°51.377 20.8708 0.026257 0.147778 10.630666
2009-09-22 07:49:59 51°22.256 2°51.374 20.8713 0.026257 0.147778 10.630666
2009-09-22 07:50:04 51°22.272 2°51.372 20.8651 0.026154 0.147202 10.630666
2009-09-22 07:50:09 51°22.288 2°51.371 20.8763 0.026154 0.147205 10.66549
2009-09-22 07:50:14 51°22.303 2°51.37 20.8759 0.026772 0.150713 10.66549
2009-09-22 07:50:19 51°22.319 2°51.367 20.8664 0.02636 0.148378 10.66549
2009-09-22 07:50:24 51°22.334 2°51.365 20.8707 0.02636 0.148375 10.66549
2009-09-22 07:50:29 51°22.35 2°51.364 20.8754 0.02636 0.148375 10.66549
2009-09-22 07:50:34 51°22.365 2°51.361 20.8707 0.026772 0.150708 10.700314
2009-09-22 07:50:39 51°22.38 2°51.36 20.8711 0.02636 0.148375 10.700314
2009-09-22 07:50:44 51°22.396 2°51.359 20.8824 0.026257 0.147789 10.700314
2009-09-22 07:50:49 51°22.411 2°51.357 20.8793 0.026257 0.147791 10.735138
2009-09-22 07:50:54 51°22.426 2°51.356 20.8826 0.026257 0.147804 10.735138
2009-09-22 07:50:59 51°22.442 2°51.353 20.881 0.026257 0.147804 10.735138
2009-09-22 07:51:04 51°22.457 2°51.352 20.8804 0.02636 0.148396 10.735138
2009-09-22 07:51:08 51°22.47 2°51.351 20.8694 0.026257 0.147815 10.735138
2009-09-22 07:51:14 51°22.488 2°51.348 20.8765 0.028624 0.161233 10.735138
2009-09-22 07:51:19 51°22.504 2°51.348 20.8842 0.027492 0.154829 10.735138
2009-09-22 07:51:24 51°22.519 2°51.346 20.8818 0.027492 0.154829 10.735138
2009-09-22 07:51:29 51°22.535 2°51.344 20.879 0.026978 0.151889 10.769962
2009-09-22 07:51:34 51°22.551 2°51.342 20.8809 0.026772 0.150705 10.769962
2009-09-22 07:51:39 51°22.566 2°51.341 20.8759 0.026772 0.150713 10.769962
2009-09-22 07:51:44 51°22.582 2°51.338 20.8849 0.026772 0.150711 10.804786
2009-09-22 07:51:48 51°22.594 2°51.336 20.8782 0.026669 0.150145 10.804786
2009-09-22 07:51:54 51°22.613 2°51.334 20.8846 0.026772 0.150713 10.83961
2009-09-22 07:51:59 51°22.628 2°51.333 20.8925 0.026772 0.150713 10.83961
2009-09-22 07:52:04 51°22.644 2°51.33 20.8883 0.027595 0.15538 10.83961
2009-09-22 07:52:09 51°22.659 2°51.328 20.8913 0.026669 0.150147 10.83961
2009-09-22 07:52:14 51°22.674 2°51.324 20.8859 0.027595 0.155391 10.83961
2009-09-22 07:52:19 51°22.689 2°51.324 20.8884 0.026669 0.150163 10.874434
2009-09-22 07:52:24 51°22.705 2°51.319 20.8831 0.029962 0.168855 10.83961
2009-09-22 07:52:29 51°22.72 2°51.319 20.8869 0.029962 0.168855 10.83961
2009-09-22 07:52:34 51°22.735 2°51.315 20.8888 0.027698 0.155993 10.874434
2009-09-22 07:52:39 51°22.75 2°51.313 20.9008 0.02811 0.158327 10.874434
2009-09-22 07:52:44 51°22.766 2°51.311 20.898 0.027698 0.155988 10.909258
2009-09-22 07:52:48 51°22.778 2°51.309 20.8891 0.027595 0.15538 10.909258
2009-09-22 07:52:54 51°22.796 2°51.306 20.894 0.027595 0.15538 10.909258
2009-09-22 07:52:59 51°22.812 2°51.303 20.8915 0.027492 0.154791 10.909258
2009-09-22 07:53:04 51°22.827 2°51.303 20.8966 0.027904 0.15716 10.909258
2009-09-22 07:53:09 51°22.842 2°51.3 20.8975 0.027595 0.155402 10.944082
2009-09-22 07:53:14 51°22.858 2°51.299 20.9015 0.027492 0.154824 10.944082
2009-09-22 07:53:19 51°22.873 2°51.296 20.8971 0.027698 0.15599 10.944082
2009-09-22 07:53:24 51°22.889 2°51.295 20.9114 0.027492 0.154843 10.944082
2009-09-22 07:53:29 51°22.904 2°51.293 20.8909 0.027492 0.154843 10.944082
2009-09-22 07:53:34 51°22.92 2°51.29 20.9067 0.029653 0.167095 10.978906
2009-09-22 07:53:39 51°22.935 2°51.289 20.9019 0.028315 0.159515 10.978906
2009-09-22 07:53:44 51°22.95 2°51.285 20.8997 0.028213 0.158922 10.978906
2009-09-22 07:53:48 51°22.963 2°51.286 20.8942 0.027698 0.156001 11.01373
2009-09-22 07:53:54 51°22.981 2°51.281 20.903 0.02883 0.162428 11.01373
2009-09-22 07:53:59 51°22.996 2°51.282 20.8979 0.02883 0.162428 11.01373
2009-09-22 07:54:04 51°23.012 2°51.278 20.9124 0.027698 0.156007 11.01373
2009-09-22 07:54:09 51°23.027 2°51.278 20.9019 0.027286 0.153688 11.01373
2009-09-22 07:54:14 51°23.043 2°51.275 20.9037 0.029242 0.164781 11.048554
2009-09-22 07:54:19 51°23.058 2°51.274 20.8987 0.027286 0.153693 11.048554
2009-09-22 07:54:24 51°23.073 2°51.271 20.9073 0.027286 0.153693 11.048554
2009-09-22 07:54:28 51°23.086 2°51.271 20.9085 0.028624 0.161267 11.083378
2009-09-22 07:54:34 51°23.104 2°51.269 20.9072 0.027492 0.15484 11.048554
2009-09-22 07:54:39 51°23.119 2°51.268 20.9324 0.027286 0.153653 11.083378
2009-09-22 07:54:44 51°23.134 2°51.267 20.9245 0.027389 0.154246 11.083378
2009-09-22 07:54:49 51°23.149 2°51.265 20.9114 0.028213 0.158922 11.118203
2009-09-22 07:54:54 51°23.165 2°51.264 20.9202 0.028213 0.158922 11.118203
2009-09-22 07:54:59 51°23.18 2°51.262 20.9108 0.027389 0.154282 11.083378
2009-09-22 07:55:04 51°23.195 2°51.26 20.9156 0.027801 0.156621 11.118203
2009-09-22 07:55:09 51°23.211 2°51.26 20.9164 0.027081 0.152544 11.118203
2009-09-22 07:55:14 51°23.226 2°51.257 20.918 0.027081 0.152525 11.153027
2009-09-22 07:55:19 51°23.241 2°51.256 20.9165 0.026978 0.151921 11.153027
2009-09-22 07:55:24 51°23.257 2°51.255 20.9129 0.027904 0.157168 11.153027
2009-09-22 07:55:28 51°23.269 2°51.253 20.9272 0.027904 0.157168 11.153027
2009-09-22 07:55:34 51°23.288 2°51.252 20.9157 0.027492 0.154868 11.187851
2009-09-22 07:55:39 51°23.303 2°51.251 20.9276 0.027698 0.156035 11.187851
2009-09-22 07:55:44 51°23.318 2°51.25 20.9312 0.027183 0.153124 11.187851
2009-09-22 07:55:49 51°23.333 2°51.247 20.9272 0.029345 0.165378 11.187851
2009-09-22 07:55:54 51°23.349 2°51.246 20.9303 0.028624 0.161308 11.222675
2009-09-22 07:55:59 51°23.364 2°51.245 20.9327 0.028624 0.161308 11.222675
2009-09-22 07:56:04 51°23.379 2°51.243 20.932 0.027389 0.154293 11.222675
2009-09-22 07:56:09 51°23.395 2°51.241 20.9211 0.027286 0.153688 11.222675
2009-09-22 07:56:14 51°23.411 2°51.24 20.9232 0.027183 0.153094 11.257499
2009-09-22 07:56:19 51°23.426 2°51.238 20.9236 0.027286 0.153693 11.257499
2009-09-22 07:56:24 51°23.441 2°51.237 20.9323 0.027286 0.153693 11.257499
2009-09-22 07:56:28 51°23.454 2°51.235 20.9343 0.027081 0.152525 11.292323
2009-09-22 07:56:34 51°23.472 2°51.233 20.9283 0.027492 0.154857 11.292323
2009-09-22 07:56:39 51°23.487 2°51.232 20.9192 0.027081 0.15253 11.292323
2009-09-22 07:56:44 51°23.503 2°51.229 20.9332 0.028933 0.16305 11.292323
2009-09-22 07:56:49 51°23.518 2°51.229 20.9283 0.027595 0.155487 11.292323
2009-09-22 07:56:54 51°23.533 2°51.227 20.9356 0.027595 0.155487 11.292323
2009-09-22 07:56:59 51°23.549 2°51.225 20.9334 0.027183 0.153151 11.327147
2009-09-22 07:57:04 51°23.564 2°51.224 20.9398 0.027081 0.152547 11.327147
2009-09-22 07:57:09 51°23.58 2°51.223 20.9429 0.027081 0.152533 11.327147
2009-09-22 07:57:14 51°23.595 2°51.221 20.943 0.027286 0.153718 11.361971
2009-09-22 07:57:19 51°23.61 2°51.219 20.93 0.028727 0.161895 11.361971
2009-09-22 07:57:24 51°23.626 2°51.218 20.9344 0.027286 0.153726 11.361971
2009-09-22 07:57:29 51°23.641 2°51.216 20.9353 0.027286 0.153726 11.361971
2009-09-22 07:57:34 51°23.657 2°51.216 20.9535 0.027286 0.153712 11.396795
2009-09-22 07:57:39 51°23.672 2°51.213 20.9408 0.027698 0.156043 11.396795
2009-09-22 07:57:44 51°23.687 2°51.212 20.9393 0.027081 0.152552 11.396795
2009-09-22 07:57:49 51°23.703 2°51.207 20.9311 0.029962 0.16894 11.431619
2009-09-22 07:57:54 51°23.717 2°51.208 20.9576 0.029962 0.16894 11.431619
2009-09-22 07:57:59 51°23.733 2°51.204 20.9485 0.027389 0.154331 11.396795
2009-09-22 07:58:04 51°23.748 2°51.203 20.949 0.028727 0.161909 11.431619
2009-09-22 07:58:09 51°23.763 2°51.2 20.952 0.027286 0.153734 11.431619
2009-09-22 07:58:14 51°23.778 2°51.199 20.9437 0.027183 0.153135 11.431619
2009-09-22 07:58:19 51°23.793 2°51.196 20.9367 0.027595 0.155468 11.466443
2009-09-22 07:58:24 51°23.808 2°51.195 20.9557 0.027595 0.155468 11.466443
2009-09-22 07:58:28 51°23.82 2°51.193 20.9427 0.027183 0.153135 11.466443
2009-09-22 07:58:34 51°23.838 2°51.191 20.9504 0.027801 0.156646 11.466443
2009-09-22 07:58:39 51°23.854 2°51.189 20.9378 0.027389 0.154328 11.501267
2009-09-22 07:58:44 51°23.869 2°51.186 20.9534 0.030579 0.172479 11.501267
2009-09-22 07:58:49 51°23.884 2°51.186 20.9436 0.028007 0.157856 11.501267
2009-09-22 07:58:54 51°23.899 2°51.182 20.9591 0.028315 0.159608 11.501267
2009-09-22 07:58:59 51°23.914 2°51.181 20.9582 0.028315 0.159608 11.501267
2009-09-22 07:59:04 51°23.929 2°51.178 20.9598 0.027492 0.154937 11.536091
2009-09-22 07:59:09 51°23.944 2°51.176 20.9556 0.027389 0.154337 11.536091
2009-09-22 07:59:14 51°23.959 2°51.175 20.9659 0.027286 0.153753 11.570915
2009-09-22 07:59:19 51°23.974 2°51.174 20.9518 0.027183 0.153167 11.570915
2009-09-22 07:59:24 51°23.99 2°51.172 20.9606 0.027081 0.152571 11.570915
2009-09-22 07:59:28 51°24.002 2°51.171 20.9643 0.027081 0.152571 11.570915
2009-09-22 07:59:34 51°24.02 2°51.168 20.9582 0.027595 0.155484 11.570915
2009-09-22 07:59:39 51°24.035 2°51.167 20.9575 0.027183 0.153154 11.605739
2009-09-22 07:59:44 51°24.051 2°51.164 20.9492 0.027389 0.15432 11.605739
2009-09-22 07:59:49 51°24.066 2°51.162 20.9543 0.027183 0.153159 11.605739
2009-09-22 07:59:54 51°24.081 2°51.159 20.9565 0.027183 0.153159 11.605739
2009-09-22 07:59:59 51°24.096 2°51.159 20.9597 0.028727 0.16195 11.605739
2009-09-22 08:00:04 51°24.112 2°51.155 20.9636 0.027492 0.154948 11.675387
2009-09-22 08:00:08 51°24.124 2°51.154 20.9714 0.028315 0.159603 11.675387
2009-09-22 08:00:14 51°24.142 2°51.152 20.9669 0.027286 0.153767 11.675387
2009-09-22 08:00:19 51°24.158 2°51.15 20.965 0.028315 0.159589 11.710211
2009-09-22 08:00:24 51°24.173 2°51.149 20.9597 0.028315 0.159589 11.710211
2009-09-22 08:00:29 51°24.188 2°51.146 20.9718 0.027286 0.153742 11.710211
2009-09-22 08:00:34 51°24.204 2°51.145 20.9705 0.027492 0.154928 11.710211
2009-09-22 08:00:39 51°24.219 2°51.142 20.9688 0.027081 0.152595 11.710211
2009-09-22 08:00:44 51°24.234 2°51.139 20.98 0.02883 0.162529 11.745035
2009-09-22 08:00:49 51°24.25 2°51.14 20.9643 0.027286 0.153794 11.745035
2009-09-22 08:00:54 51°24.265 2°51.135 20.9702 0.027492 0.154939 11.77986
2009-09-22 08:00:59 51°24.28 2°51.134 20.9742 0.027492 0.154939 11.77986
2009-09-22 08:01:04 51°24.295 2°51.132 20.9618 0.027081 0.152617 11.77986
2009-09-22 08:01:09 51°24.31 2°51.129 20.9815 0.027904 0.157291 11.77986
2009-09-22 08:01:14 51°24.325 2°51.129 20.9897 0.027801 0.156702 11.814684
2009-09-22 08:01:19 51°24.34 2°51.127 20.9869 0.027904 0.157272 11.77986
2009-09-22 08:01:24 51°24.355 2°51.126 20.9714 0.027801 0.156665 11.814684
2009-09-22 08:01:29 51°24.37 2°51.123 20.9752 0.027801 0.156665 11.814684
2009-09-22 08:01:34 51°24.385 2°51.121 20.9702 0.027595 0.155512 11.849508
2009-09-22 08:01:39 51°24.401 2°51.119 20.9841 0.027389 0.15435 11.849508
2009-09-22 08:01:44 51°24.416 2°51.118 20.9829 0.027286 0.153756 11.884332
2009-09-22 08:01:49 51°24.431 2°51.116 20.9824 0.027183 0.153173 11.884332
2009-09-22 08:01:54 51°24.446 2°51.114 20.9706 0.027183 0.153173 11.884332
2009-09-22 08:01:59 51°24.461 2°51.113 20.9961 0.027286 0.153759 11.884332
2009-09-22 08:02:04 51°24.476 2°51.111 20.9817 0.027183 0.153173 11.884332
2009-09-22 08:02:09 51°24.491 2°51.109 20.9761 0.027081 0.15259 11.919156
2009-09-22 08:02:14 51°24.506 2°51.107 20.9838 0.029036 0.163725 11.95398
2009-09-22 08:02:19 51°24.521 2°51.106 20.9824 0.027698 0.156145 11.95398
2009-09-22 08:02:24 51°24.536 2°51.104 20.9877 0.028521 0.160818 11.95398
2009-09-22 08:02:29 51°24.552 2°51.101 20.9893 0.028521 0.160818 11.95398
2009-09-22 08:02:34 51°24.567 2°51.102 20.987 0.027183 0.15323 11.95398
2009-09-22 08:02:39 51°24.582 2°51.099 20.9876 0.027081 0.152636 11.988804
2009-09-22 08:02:44 51°24.597 2°51.097 20.994 0.02811 0.158462 12.023628
2009-09-22 08:02:49 51°24.612 2°51.097 20.9831 0.027183 0.153214 12.023628
2009-09-22 08:02:54 51°24.627 2°51.093 20.9897 0.027183 0.153214 12.023628
2009-09-22 08:02:59 51°24.642 2°51.093 21.002 0.027183 0.153214 12.023628
2009-09-22 08:03:04 51°24.657 2°51.09 21.0018 0.027081 0.152614 12.023628
2009-09-22 08:03:09 51°24.672 2°51.088 20.9855 0.026978 0.152012 12.058452
2009-09-22 08:03:14 51°24.687 2°51.086 20.9918 0.026875 0.151424 12.058452
2009-09-22 08:03:19 51°24.702 2°51.084 20.9965 0.026875 0.151427 12.093276
2009-09-22 08:03:24 51°24.717 2°51.082 20.9978 0.027183 0.153176 12.093276
2009-09-22 08:03:29 51°24.733 2°51.08 20.9948 0.027183 0.153176 12.093276
2009-09-22 08:03:34 51°24.748 2°51.079 21.0003 0.027183 0.153192 12.093276
2009-09-22 08:03:39 51°24.763 2°51.075 21.0046 0.029036 0.163734 12.093276
2009-09-22 08:03:44 51°24.778 2°51.075 20.9908 0.027492 0.154978 12.1281
2009-09-22 08:03:49 51°24.793 2°51.07 21.0019 0.029962 0.169024 12.1281
2009-09-22 08:03:54 51°24.808 2°51.071 20.9908 0.029962 0.169024 12.1281
2009-09-22 08:03:59 51°24.823 2°51.065 21.0082 0.027492 0.154972 12.1281
2009-09-22 08:04:04 51°24.838 2°51.065 21.009 0.028624 0.161385 12.1281
2009-09-22 08:04:09 51°24.853 2°51.062 21.0203 0.027389 0.154375 12.162924
2009-09-22 08:04:14 51°24.868 2°51.062 21.0128 0.027801 0.156718 12.162924
2009-09-22 08:04:19 51°24.883 2°51.059 21.0144 0.027286 0.153789 12.162924
2009-09-22 08:04:24 51°24.898 2°51.057 21.0123 0.027183 0.153203 12.197748
2009-09-22 08:04:29 51°24.913 2°51.054 21.0159 0.027183 0.153203 12.197748
2009-09-22 08:04:34 51°24.928 2°51.052 21.0165 0.027081 0.152622 12.232572
2009-09-22 08:04:39 51°24.942 2°51.051 21.0223 0.027904 0.157322 12.232572
2009-09-22 08:04:44 51°24.957 2°51.048 21.0065 0.027183 0.153227 12.267396
2009-09-22 08:04:49 51°24.972 2°51.046 21.0091 0.027081 0.15263 12.232572
2009-09-22 08:04:54 51°24.987 2°51.043 21.0131 0.026978 0.152063 12.267396
2009-09-22 08:04:59 51°25.002 2°51.042 21.0105 0.026978 0.152063 12.267396
2009-09-22 08:05:04 51°25.017 2°51.039 21.0124 0.026978 0.152058 12.267396
2009-09-22 08:05:09 51°25.032 2°51.038 21.0156 0.027801 0.156768 12.30222
2009-09-22 08:05:14 51°25.047 2°51.036 21.0152 0.027286 0.153849 12.30222
2009-09-22 08:05:19 51°25.062 2°51.034 21.0238 0.027801 0.156766 12.30222
2009-09-22 08:05:24 51°25.077 2°51.033 21.019 0.027801 0.156766 12.30222
2009-09-22 08:05:29 51°25.092 2°51.03 21.0173 0.027698 0.156179 12.337044
2009-09-22 08:05:34 51°25.107 2°51.029 21.0149 0.027183 0.153252 12.337044
2009-09-22 08:05:39 51°25.122 2°51.026 21.0252 0.028624 0.161428 12.371868
2009-09-22 08:05:44 51°25.137 2°51.026 21.0164 0.027183 0.153257 12.371868
2009-09-22 08:05:49 51°25.151 2°51.022 21.0269 0.027492 0.154986 12.371868
2009-09-22 08:05:54 51°25.166 2°51.021 21.0219 0.027081 0.15266 12.371868
2009-09-22 08:05:59 51°25.181 2°51.019 21.0241 0.027081 0.15266 12.371868
2009-09-22 08:06:04 51°25.196 2°51.016 21.0292 0.027081 0.152655 12.406692
2009-09-22 08:06:09 51°25.211 2°51.015 21.0153 0.027183 0.153257 12.406692
2009-09-22 08:06:14 51°25.226 2°51.01 21.0147 0.027698 0.156181 12.406692
2009-09-22 08:06:19 51°25.241 2°51.009 21.0126 0.027698 0.156184 12.406692
2009-09-22 08:06:24 51°25.256 2°51.006 21.0244 0.027081 0.152663 12.441517
2009-09-22 08:06:29 51°25.27 2°51.004 21.0301 0.027081 0.152663 12.441517
2009-09-22 08:06:34 51°25.285 2°51.002 21.0288 0.027286 0.153841 12.476341
2009-09-22 08:06:39 51°25.3 2°50.999 21.0211 0.026978 0.152085 12.476341
2009-09-22 08:06:44 51°25.315 2°50.997 21.0204 0.028213 0.159092 12.476341
2009-09-22 08:06:49 51°25.329 2°50.994 21.0281 0.027286 0.153851 12.476341
2009-09-22 08:06:54 51°25.344 2°50.992 21.0251 0.028315 0.159688 12.511165
2009-09-22 08:06:59 51°25.359 2°50.988 21.0312 0.028315 0.159688 12.511165
2009-09-22 08:07:04 51°25.374 2°50.987 21.0178 0.028418 0.160304 12.511165
2009-09-22 08:07:09 51°25.389 2°50.983 21.0332 0.027286 0.153876 12.545989
2009-09-22 08:07:14 51°25.404 2°50.981 21.0336 0.027183 0.153262 12.545989
2009-09-22 08:07:19 51°25.418 2°50.979 21.0375 0.027286 0.153838 12.545989
2009-09-22 08:07:24 51°25.433 2°50.976 21.0342 0.027286 0.153838 12.545989
2009-09-22 08:07:29 51°25.448 2°50.974 21.0342 0.027286 0.15383 12.580813
2009-09-22 08:07:34 51°25.463 2°50.973 21.0317 0.027081 0.152665 12.580813
2009-09-22 08:07:39 51°25.478 2°50.97 21.0327 0.027081 0.152668 12.615637
2009-09-22 08:07:44 51°25.492 2°50.968 21.0415 0.026978 0.152085 12.615637
2009-09-22 08:07:49 51°25.507 2°50.965 21.0303 0.026978 0.152093 12.615637
2009-09-22 08:07:54 51°25.522 2°50.963 21.041 0.027698 0.15617 12.615637
2009-09-22 08:07:59 51°25.537 2°50.96 21.0312 0.027698 0.15617 12.615637
2009-09-22 08:08:04 51°25.552 2°50.959 21.03 0.027595 0.155617 12.650461
2009-09-22 08:08:09 51°25.567 2°50.956 21.0453 0.027492 0.155038 12.650461
2009-09-22 08:08:14 51°25.582 2°50.954 21.036 0.027183 0.153265 12.650461
2009-09-22 08:08:19 51°25.596 2°50.952 21.0388 0.027081 0.152663 12.685285
2009-09-22 08:08:24 51°25.612 2°50.949 21.0315 0.029242 0.164955 12.685285
2009-09-22 08:08:29 51°25.626 2°50.946 21.0574 0.029242 0.164955 12.685285
2009-09-22 08:08:34 51°25.641 2°50.945 21.0415 0.028418 0.160301 12.685285
2009-09-22 08:08:39 51°25.656 2°50.941 21.0469 0.027286 0.153865 12.685285
2009-09-22 08:08:44 51°25.671 2°50.94 21.0491 0.027389 0.154443 12.720109
2009-09-22 08:08:49 51°25.686 2°50.936 21.0514 0.027492 0.155036 12.720109
2009-09-22 08:08:54 51°25.701 2°50.935 21.053 0.027492 0.155036 12.720109
2009-09-22 08:08:59 51°25.716 2°50.931 21.0597 0.027698 0.156198 12.754933
2009-09-22 08:09:04 51°25.731 2°50.93 21.0638 0.027286 0.15386 12.754933
2009-09-22 08:09:09 51°25.746 2°50.927 21.0568 0.027389 0.154413 12.789757
2009-09-22 08:09:14 51°25.761 2°50.924 21.0484 0.028933 0.163193 12.789757
2009-09-22 08:09:19 51°25.775 2°50.923 21.0559 0.027389 0.154449 12.789757
2009-09-22 08:09:24 51°25.79 2°50.921 21.0386 0.027389 0.154449 12.789757
2009-09-22 08:09:29 51°25.805 2°50.918 21.0649 0.028007 0.157951 12.789757
2009-09-22 08:09:34 51°25.82 2°50.916 21.0585 0.027183 0.153273 12.824581
2009-09-22 08:09:39 51°25.835 2°50.913 21.0516 0.027081 0.152679 12.824581
2009-09-22 08:09:44 51°25.85 2°50.91 21.0576 0.026978 0.152098 12.824581
2009-09-22 08:09:49 51°25.865 2°50.908 21.0657 0.026978 0.152117 12.859405
2009-09-22 08:09:54 51°25.88 2°50.907 21.0546 0.026875 0.151534 12.859405
2009-09-22 08:09:59 51°25.895 2°50.904 21.0639 0.026875 0.151534 12.859405
2009-09-22 08:10:04 51°25.91 2°50.902 21.0603 0.027595 0.155628 12.894229
2009-09-22 08:10:09 51°25.924 2°50.9 21.0498 0.027081 0.15272 12.894229
2009-09-22 08:10:14 51°25.939 2°50.898 21.0722 0.027595 0.155644 12.894229
2009-09-22 08:10:19 51°25.954 2°50.897 21.0751 0.026978 0.152131 12.929053
2009-09-22 08:10:24 51°25.969 2°50.894 21.065 0.02955 0.166746 12.929053
2009-09-22 08:10:29 51°25.984 2°50.891 21.0724 0.02955 0.166746 12.929053
2009-09-22 08:10:34 51°25.999 2°50.89 21.0622 0.02811 0.158581 13.06835
2009-09-22 08:10:39 51°26.014 2°50.887 21.0637 0.027286 0.153903 13.312118
2009-09-22 08:10:44 51°26.029 2°50.885 21.0714 0.027286 0.153887 13.277294
2009-09-22 08:10:49 51°26.044 2°50.884 21.0597 0.027183 0.153298 13.277294
2009-09-22 08:10:54 51°26.059 2°50.881 21.0727 0.027183 0.153298 13.277294
2009-09-22 08:10:59 51°26.074 2°50.88 21.0736 0.027081 0.152709 13.24247
2009-09-22 08:11:04 51°26.089 2°50.876 21.0694 0.027081 0.152709 13.24247
2009-09-22 08:11:09 51°26.104 2°50.875 21.0686 0.027286 0.153879 13.24247
2009-09-22 08:11:14 51°26.119 2°50.872 21.0706 0.027183 0.153298 13.24247
2009-09-22 08:11:19 51°26.134 2°50.871 21.0809 0.027492 0.155033 13.24247
2009-09-22 08:11:24 51°26.149 2°50.869 21.0822 0.027183 0.15329 13.277294
2009-09-22 08:11:28 51°26.161 2°50.867 21.0773 0.027183 0.15329 13.277294
2009-09-22 08:11:34 51°26.179 2°50.865 21.0687 0.027081 0.15269 13.277294
2009-09-22 08:11:39 51°26.194 2°50.862 21.0804 0.027698 0.156209 13.312118
2009-09-22 08:11:44 51°26.209 2°50.861 21.0776 0.027801 0.156799 13.346942
2009-09-22 08:11:49 51°26.224 2°50.858 21.0743 0.027595 0.15565 13.346942
2009-09-22 08:11:54 51°26.239 2°50.856 21.0755 0.027492 0.155047 13.346942
2009-09-22 08:11:59 51°26.254 2°50.854 21.0831 0.027492 0.155047 13.346942
2009-09-22 08:12:04 51°26.269 2°50.852 21.0908 0.027286 0.153871 13.381766
2009-09-22 08:12:09 51°26.284 2°50.85 21.0752 0.027286 0.153903 13.41659
2009-09-22 08:12:14 51°26.299 2°50.847 21.0875 0.027183 0.153306 13.41659
2009-09-22 08:12:19 51°26.314 2°50.845 21.0885 0.027183 0.153328 13.451414
2009-09-22 08:12:24 51°26.329 2°50.843 21.0907 0.027183 0.153328 13.451414
2009-09-22 08:12:28 51°26.341 2°50.841 21.0934 0.027286 0.153895 13.451414
2009-09-22 08:12:34 51°26.359 2°50.838 21.0887 0.027081 0.15272 13.486238
2009-09-22 08:12:39 51°26.374 2°50.836 21.0849 0.027286 0.153898 13.521062
2009-09-22 08:12:44 51°26.389 2°50.832 21.0904 0.027081 0.152733 13.521062
2009-09-22 08:12:49 51°26.404 2°50.831 21.0801 0.027183 0.153317 13.555886
2009-09-22 08:12:54 51°26.419 2°50.829 21.085 0.027183 0.153317 13.555886
2009-09-22 08:12:59 51°26.434 2°50.825 21.0882 0.027183 0.15332 13.555886
2009-09-22 08:13:04 51°26.449 2°50.826 21.0789 0.028007 0.158035 13.59071
2009-09-22 08:13:09 51°26.464 2°50.822 21.0858 0.027286 0.153947 13.625534
2009-09-22 08:13:14 51°26.479 2°50.819 21.0804 0.030271 0.170919 13.625534
2009-09-22 08:13:19 51°26.494 2°50.818 21.0893 0.027698 0.156287 13.660358
2009-09-22 08:13:24 51°26.509 2°50.814 21.0789 0.027698 0.156268 13.695182
2009-09-22 08:13:28 51°26.521 2°50.813 21.0964 0.027698 0.156268 13.695182
2009-09-22 08:13:34 51°26.539 2°50.809 21.0911 0.027698 0.156265 13.695182